<?xml version="1.0" encoding="UTF-8" standalone="no" ?>
<gpx xmlns="http://www.topografix.com/GPX/1/1" xmlns:xsi="http://www.w3.org/2001/XMLSchema-instance" xsi:schemaLocation="http://www.topografix.com/GPX/1/1 http://www.topografix.com/GPX/1/1/gpx.xsd" version="1.1" creator="VisuGPX - https://www.visugpx.com">
  <metadata>
    <name>Fromagerie Saint Ours</name>
    <desc><![CDATA[03/07/2011 découverte des bauges]]></desc>
  </metadata>
  <trk>
    <name><![CDATA[ACTIVE LOG]]></name>
    <trkseg>
      <trkpt lat="45.74763" lon="5.98688">
        <ele>490.890381</ele>
        <time>2011-07-03T07:12:11Z</time>
      </trkpt>
      <trkpt lat="45.74767" lon="5.98684">
        <ele>490.40979</ele>
        <time>2011-07-03T07:12:31Z</time>
      </trkpt>
      <trkpt lat="45.74765" lon="5.98682">
        <ele>491.370972</ele>
        <time>2011-07-03T07:12:46Z</time>
      </trkpt>
      <trkpt lat="45.74765" lon="5.98676">
        <ele>491.370972</ele>
        <time>2011-07-03T07:12:50Z</time>
      </trkpt>
      <trkpt lat="45.74763" lon="5.98641">
        <ele>489.929077</ele>
        <time>2011-07-03T07:13:08Z</time>
      </trkpt>
      <trkpt lat="45.74765" lon="5.98615">
        <ele>488.967773</ele>
        <time>2011-07-03T07:13:23Z</time>
      </trkpt>
      <trkpt lat="45.74763" lon="5.98594">
        <ele>488.00647</ele>
        <time>2011-07-03T07:13:29Z</time>
      </trkpt>
      <trkpt lat="45.74765" lon="5.9857">
        <ele>487.525635</ele>
        <time>2011-07-03T07:13:35Z</time>
      </trkpt>
      <trkpt lat="45.74767" lon="5.9856">
        <ele>487.525635</ele>
        <time>2011-07-03T07:13:39Z</time>
      </trkpt>
      <trkpt lat="45.74771" lon="5.98474">
        <ele>488.00647</ele>
        <time>2011-07-03T07:13:57Z</time>
      </trkpt>
      <trkpt lat="45.74778" lon="5.98384">
        <ele>488.00647</ele>
        <time>2011-07-03T07:14:14Z</time>
      </trkpt>
      <trkpt lat="45.74789" lon="5.98304">
        <ele>488.00647</ele>
        <time>2011-07-03T07:14:30Z</time>
      </trkpt>
      <trkpt lat="45.74801" lon="5.98251">
        <ele>487.525635</ele>
        <time>2011-07-03T07:14:43Z</time>
      </trkpt>
      <trkpt lat="45.74812" lon="5.9821">
        <ele>487.045044</ele>
        <time>2011-07-03T07:14:51Z</time>
      </trkpt>
      <trkpt lat="45.74832" lon="5.98214">
        <ele>487.045044</ele>
        <time>2011-07-03T07:14:57Z</time>
      </trkpt>
      <trkpt lat="45.74894" lon="5.98246">
        <ele>488.00647</ele>
        <time>2011-07-03T07:15:14Z</time>
      </trkpt>
      <trkpt lat="45.74956" lon="5.98274">
        <ele>489.448364</ele>
        <time>2011-07-03T07:15:32Z</time>
      </trkpt>
      <trkpt lat="45.75016" lon="5.983">
        <ele>491.370972</ele>
        <time>2011-07-03T07:15:49Z</time>
      </trkpt>
      <trkpt lat="45.751" lon="5.98317">
        <ele>492.332397</ele>
        <time>2011-07-03T07:16:11Z</time>
      </trkpt>
      <trkpt lat="45.75183" lon="5.983">
        <ele>495.696899</ele>
        <time>2011-07-03T07:16:34Z</time>
      </trkpt>
      <trkpt lat="45.75207" lon="5.98246">
        <ele>498.100342</ele>
        <time>2011-07-03T07:16:48Z</time>
      </trkpt>
      <trkpt lat="45.75237" lon="5.98212">
        <ele>502.906738</ele>
        <time>2011-07-03T07:17:03Z</time>
      </trkpt>
      <trkpt lat="45.75278" lon="5.98193">
        <ele>507.232788</ele>
        <time>2011-07-03T07:17:21Z</time>
      </trkpt>
      <trkpt lat="45.75316" lon="5.98171">
        <ele>512.52002</ele>
        <time>2011-07-03T07:17:39Z</time>
      </trkpt>
      <trkpt lat="45.75349" lon="5.98152">
        <ele>515.884644</ele>
        <time>2011-07-03T07:17:55Z</time>
      </trkpt>
      <trkpt lat="45.75362" lon="5.98148">
        <ele>516.845947</ele>
        <time>2011-07-03T07:18:01Z</time>
      </trkpt>
      <trkpt lat="45.7537" lon="5.98146">
        <ele>516.845947</ele>
        <time>2011-07-03T07:18:06Z</time>
      </trkpt>
      <trkpt lat="45.754" lon="5.98167">
        <ele>519.249268</ele>
        <time>2011-07-03T07:18:22Z</time>
      </trkpt>
      <trkpt lat="45.75407" lon="5.98161">
        <ele>518.768555</ele>
        <time>2011-07-03T07:18:28Z</time>
      </trkpt>
      <trkpt lat="45.75447" lon="5.98131">
        <ele>518.768555</ele>
        <time>2011-07-03T07:18:47Z</time>
      </trkpt>
      <trkpt lat="45.75507" lon="5.98094">
        <ele>516.845947</ele>
        <time>2011-07-03T07:19:05Z</time>
      </trkpt>
      <trkpt lat="45.75576" lon="5.9804">
        <ele>512.039429</ele>
        <time>2011-07-03T07:19:21Z</time>
      </trkpt>
      <trkpt lat="45.75664" lon="5.97991">
        <ele>508.674683</ele>
        <time>2011-07-03T07:19:33Z</time>
      </trkpt>
      <trkpt lat="45.75694" lon="5.97993">
        <ele>508.194092</ele>
        <time>2011-07-03T07:19:37Z</time>
      </trkpt>
      <trkpt lat="45.7572" lon="5.97961">
        <ele>507.713501</ele>
        <time>2011-07-03T07:19:43Z</time>
      </trkpt>
      <trkpt lat="45.75711" lon="5.97946">
        <ele>506.752075</ele>
        <time>2011-07-03T07:19:45Z</time>
      </trkpt>
      <trkpt lat="45.75681" lon="5.97892">
        <ele>500.984131</ele>
        <time>2011-07-03T07:19:55Z</time>
      </trkpt>
      <trkpt lat="45.75671" lon="5.97817">
        <ele>503.387451</ele>
        <time>2011-07-03T07:20:08Z</time>
      </trkpt>
      <trkpt lat="45.75677" lon="5.97819">
        <ele>504.348877</ele>
        <time>2011-07-03T07:20:12Z</time>
      </trkpt>
      <trkpt lat="45.75713" lon="5.97862">
        <ele>506.271484</ele>
        <time>2011-07-03T07:20:29Z</time>
      </trkpt>
      <trkpt lat="45.75733" lon="5.97873">
        <ele>506.271484</ele>
        <time>2011-07-03T07:20:45Z</time>
      </trkpt>
      <trkpt lat="45.75718" lon="5.97867">
        <ele>519.249268</ele>
        <time>2011-07-03T07:24:44Z</time>
      </trkpt>
      <trkpt lat="45.7569" lon="5.97839">
        <ele>516.845947</ele>
        <time>2011-07-03T07:24:56Z</time>
      </trkpt>
      <trkpt lat="45.75668" lon="5.97807">
        <ele>513.962036</ele>
        <time>2011-07-03T07:25:07Z</time>
      </trkpt>
      <trkpt lat="45.75671" lon="5.97787">
        <ele>513.481445</ele>
        <time>2011-07-03T07:25:12Z</time>
      </trkpt>
      <trkpt lat="45.75688" lon="5.97706">
        <ele>513.000732</ele>
        <time>2011-07-03T07:25:31Z</time>
      </trkpt>
      <trkpt lat="45.75696" lon="5.97688">
        <ele>513.481445</ele>
        <time>2011-07-03T07:25:36Z</time>
      </trkpt>
      <trkpt lat="45.75709" lon="5.97697">
        <ele>514.442627</ele>
        <time>2011-07-03T07:25:41Z</time>
      </trkpt>
      <trkpt lat="45.75769" lon="5.97738">
        <ele>516.365234</ele>
        <time>2011-07-03T07:25:59Z</time>
      </trkpt>
      <trkpt lat="45.75829" lon="5.97759">
        <ele>519.249268</ele>
        <time>2011-07-03T07:26:19Z</time>
      </trkpt>
      <trkpt lat="45.75896" lon="5.97759">
        <ele>524.055786</ele>
        <time>2011-07-03T07:26:43Z</time>
      </trkpt>
      <trkpt lat="45.75949" lon="5.97757">
        <ele>526.459106</ele>
        <time>2011-07-03T07:27:03Z</time>
      </trkpt>
      <trkpt lat="45.7601" lon="5.97749">
        <ele>525.497803</ele>
        <time>2011-07-03T07:27:24Z</time>
      </trkpt>
      <trkpt lat="45.76074" lon="5.97744">
        <ele>524.536499</ele>
        <time>2011-07-03T07:27:43Z</time>
      </trkpt>
      <trkpt lat="45.7613" lon="5.97759">
        <ele>525.017212</ele>
        <time>2011-07-03T07:27:58Z</time>
      </trkpt>
      <trkpt lat="45.76207" lon="5.9777">
        <ele>524.055786</ele>
        <time>2011-07-03T07:28:19Z</time>
      </trkpt>
      <trkpt lat="45.76216" lon="5.9777">
        <ele>523.094604</ele>
        <time>2011-07-03T07:28:22Z</time>
      </trkpt>
      <trkpt lat="45.76222" lon="5.97744">
        <ele>521.171997</ele>
        <time>2011-07-03T07:28:26Z</time>
      </trkpt>
      <trkpt lat="45.76252" lon="5.97742">
        <ele>520.210571</ele>
        <time>2011-07-03T07:28:33Z</time>
      </trkpt>
      <trkpt lat="45.76295" lon="5.97749">
        <ele>519.249268</ele>
        <time>2011-07-03T07:28:42Z</time>
      </trkpt>
      <trkpt lat="45.76316" lon="5.97764">
        <ele>518.287842</ele>
        <time>2011-07-03T07:28:47Z</time>
      </trkpt>
      <trkpt lat="45.76325" lon="5.97779">
        <ele>517.807251</ele>
        <time>2011-07-03T07:28:50Z</time>
      </trkpt>
      <trkpt lat="45.76325" lon="5.97798">
        <ele>518.287842</ele>
        <time>2011-07-03T07:28:56Z</time>
      </trkpt>
      <trkpt lat="45.76329" lon="5.97886">
        <ele>519.729858</ele>
        <time>2011-07-03T07:29:20Z</time>
      </trkpt>
      <trkpt lat="45.76327" lon="5.97903">
        <ele>522.133179</ele>
        <time>2011-07-03T07:29:26Z</time>
      </trkpt>
      <trkpt lat="45.76316" lon="5.97901">
        <ele>523.575195</ele>
        <time>2011-07-03T07:29:33Z</time>
      </trkpt>
      <trkpt lat="45.76291" lon="5.97894">
        <ele>525.497803</ele>
        <time>2011-07-03T07:29:45Z</time>
      </trkpt>
      <trkpt lat="45.76289" lon="5.9789">
        <ele>525.497803</ele>
        <time>2011-07-03T07:29:55Z</time>
      </trkpt>
      <trkpt lat="45.76284" lon="5.97901">
        <ele>541.359497</ele>
        <time>2011-07-03T07:33:19Z</time>
      </trkpt>
      <trkpt lat="45.76291" lon="5.97899">
        <ele>542.320923</ele>
        <time>2011-07-03T07:33:23Z</time>
      </trkpt>
      <trkpt lat="45.76319" lon="5.97925">
        <ele>537.994995</ele>
        <time>2011-07-03T07:33:40Z</time>
      </trkpt>
      <trkpt lat="45.76327" lon="5.97959">
        <ele>537.994995</ele>
        <time>2011-07-03T07:33:52Z</time>
      </trkpt>
      <trkpt lat="45.76301" lon="5.97995">
        <ele>542.320923</ele>
        <time>2011-07-03T07:34:08Z</time>
      </trkpt>
      <trkpt lat="45.76278" lon="5.98038">
        <ele>542.801514</ele>
        <time>2011-07-03T07:34:26Z</time>
      </trkpt>
      <trkpt lat="45.76261" lon="5.98111">
        <ele>546.16626</ele>
        <time>2011-07-03T07:34:51Z</time>
      </trkpt>
      <trkpt lat="45.76222" lon="5.98139">
        <ele>549.050049</ele>
        <time>2011-07-03T07:35:14Z</time>
      </trkpt>
      <trkpt lat="45.76192" lon="5.98163">
        <ele>550.972656</ele>
        <time>2011-07-03T07:35:30Z</time>
      </trkpt>
      <trkpt lat="45.76175" lon="5.98221">
        <ele>554.817871</ele>
        <time>2011-07-03T07:35:49Z</time>
      </trkpt>
      <trkpt lat="45.76173" lon="5.98227">
        <ele>554.817871</ele>
        <time>2011-07-03T07:35:51Z</time>
      </trkpt>
      <trkpt lat="45.76186" lon="5.98264">
        <ele>556.26001</ele>
        <time>2011-07-03T07:36:05Z</time>
      </trkpt>
      <trkpt lat="45.76213" lon="5.98309">
        <ele>558.66333</ele>
        <time>2011-07-03T07:36:26Z</time>
      </trkpt>
      <trkpt lat="45.76226" lon="5.98358">
        <ele>562.989258</ele>
        <time>2011-07-03T07:36:44Z</time>
      </trkpt>
      <trkpt lat="45.76243" lon="5.98403">
        <ele>569.237793</ele>
        <time>2011-07-03T07:37:05Z</time>
      </trkpt>
      <trkpt lat="45.76258" lon="5.98437">
        <ele>575.486328</ele>
        <time>2011-07-03T07:37:23Z</time>
      </trkpt>
      <trkpt lat="45.76284" lon="5.98476">
        <ele>579.331543</ele>
        <time>2011-07-03T07:37:46Z</time>
      </trkpt>
      <trkpt lat="45.76301" lon="5.98506">
        <ele>585.580078</ele>
        <time>2011-07-03T07:38:03Z</time>
      </trkpt>
      <trkpt lat="45.76321" lon="5.98536">
        <ele>590.867432</ele>
        <time>2011-07-03T07:38:22Z</time>
      </trkpt>
      <trkpt lat="45.76342" lon="5.98583">
        <ele>595.674072</ele>
        <time>2011-07-03T07:38:46Z</time>
      </trkpt>
      <trkpt lat="45.76355" lon="5.9862">
        <ele>599.038574</ele>
        <time>2011-07-03T07:39:04Z</time>
      </trkpt>
      <trkpt lat="45.76353" lon="5.98628">
        <ele>599.519287</ele>
        <time>2011-07-03T07:39:09Z</time>
      </trkpt>
      <trkpt lat="45.76353" lon="5.98637">
        <ele>600</ele>
        <time>2011-07-03T07:39:14Z</time>
      </trkpt>
      <trkpt lat="45.76368" lon="5.98652">
        <ele>603.364502</ele>
        <time>2011-07-03T07:39:29Z</time>
      </trkpt>
      <trkpt lat="45.76368" lon="5.98658">
        <ele>604.326172</ele>
        <time>2011-07-03T07:39:33Z</time>
      </trkpt>
      <trkpt lat="45.76389" lon="5.98688">
        <ele>607.690674</ele>
        <time>2011-07-03T07:39:55Z</time>
      </trkpt>
      <trkpt lat="45.76413" lon="5.98691">
        <ele>610.574463</ele>
        <time>2011-07-03T07:40:10Z</time>
      </trkpt>
      <trkpt lat="45.76419" lon="5.98721">
        <ele>611.055176</ele>
        <time>2011-07-03T07:40:26Z</time>
      </trkpt>
      <trkpt lat="45.76413" lon="5.98761">
        <ele>612.977783</ele>
        <time>2011-07-03T07:40:41Z</time>
      </trkpt>
      <trkpt lat="45.76402" lon="5.98819">
        <ele>616.822998</ele>
        <time>2011-07-03T07:41:02Z</time>
      </trkpt>
      <trkpt lat="45.76398" lon="5.98845">
        <ele>618.745605</ele>
        <time>2011-07-03T07:41:17Z</time>
      </trkpt>
      <trkpt lat="45.76396" lon="5.98847">
        <ele>621.14917</ele>
        <time>2011-07-03T07:41:30Z</time>
      </trkpt>
      <trkpt lat="45.76394" lon="5.98858">
        <ele>621.14917</ele>
        <time>2011-07-03T07:41:34Z</time>
      </trkpt>
      <trkpt lat="45.76385" lon="5.98916">
        <ele>625.474854</ele>
        <time>2011-07-03T07:41:56Z</time>
      </trkpt>
      <trkpt lat="45.76413" lon="5.98948">
        <ele>623.55249</ele>
        <time>2011-07-03T07:42:11Z</time>
      </trkpt>
      <trkpt lat="45.76426" lon="5.98961">
        <ele>623.55249</ele>
        <time>2011-07-03T07:42:15Z</time>
      </trkpt>
      <trkpt lat="45.76437" lon="5.98985">
        <ele>622.110352</ele>
        <time>2011-07-03T07:42:19Z</time>
      </trkpt>
      <trkpt lat="45.7649" lon="5.99049">
        <ele>618.264893</ele>
        <time>2011-07-03T07:42:32Z</time>
      </trkpt>
      <trkpt lat="45.76548" lon="5.99128">
        <ele>618.745605</ele>
        <time>2011-07-03T07:42:48Z</time>
      </trkpt>
      <trkpt lat="45.7658" lon="5.99167">
        <ele>622.591064</ele>
        <time>2011-07-03T07:43:03Z</time>
      </trkpt>
      <trkpt lat="45.76625" lon="5.99188">
        <ele>622.110352</ele>
        <time>2011-07-03T07:43:21Z</time>
      </trkpt>
      <trkpt lat="45.76683" lon="5.99191">
        <ele>624.032959</ele>
        <time>2011-07-03T07:43:40Z</time>
      </trkpt>
      <trkpt lat="45.76733" lon="5.99188">
        <ele>625.474854</ele>
        <time>2011-07-03T07:43:57Z</time>
      </trkpt>
      <trkpt lat="45.76771" lon="5.99193">
        <ele>632.204102</ele>
        <time>2011-07-03T07:44:18Z</time>
      </trkpt>
      <trkpt lat="45.76801" lon="5.99201">
        <ele>634.126709</ele>
        <time>2011-07-03T07:44:37Z</time>
      </trkpt>
      <trkpt lat="45.76831" lon="5.99218">
        <ele>638.933594</ele>
        <time>2011-07-03T07:44:57Z</time>
      </trkpt>
      <trkpt lat="45.76872" lon="5.99238">
        <ele>644.220703</ele>
        <time>2011-07-03T07:45:21Z</time>
      </trkpt>
      <trkpt lat="45.769" lon="5.99263">
        <ele>648.546387</ele>
        <time>2011-07-03T07:45:41Z</time>
      </trkpt>
      <trkpt lat="45.76937" lon="5.993">
        <ele>649.507813</ele>
        <time>2011-07-03T07:46:08Z</time>
      </trkpt>
      <trkpt lat="45.76975" lon="5.99336">
        <ele>655.275879</ele>
        <time>2011-07-03T07:46:32Z</time>
      </trkpt>
      <trkpt lat="45.77016" lon="5.99377">
        <ele>658.159912</ele>
        <time>2011-07-03T07:46:56Z</time>
      </trkpt>
      <trkpt lat="45.77035" lon="5.99407">
        <ele>659.121094</ele>
        <time>2011-07-03T07:47:09Z</time>
      </trkpt>
      <trkpt lat="45.77057" lon="5.99435">
        <ele>662.966309</ele>
        <time>2011-07-03T07:47:24Z</time>
      </trkpt>
      <trkpt lat="45.77091" lon="5.99478">
        <ele>670.17627</ele>
        <time>2011-07-03T07:47:50Z</time>
      </trkpt>
      <trkpt lat="45.77108" lon="5.9951">
        <ele>672.098877</ele>
        <time>2011-07-03T07:48:06Z</time>
      </trkpt>
      <trkpt lat="45.77091" lon="5.99517">
        <ele>674.021484</ele>
        <time>2011-07-03T07:48:16Z</time>
      </trkpt>
      <trkpt lat="45.77048" lon="5.99497">
        <ele>677.866699</ele>
        <time>2011-07-03T07:48:38Z</time>
      </trkpt>
      <trkpt lat="45.77012" lon="5.99502">
        <ele>679.308594</ele>
        <time>2011-07-03T07:48:56Z</time>
      </trkpt>
      <trkpt lat="45.76964" lon="5.99517">
        <ele>682.192627</ele>
        <time>2011-07-03T07:49:20Z</time>
      </trkpt>
      <trkpt lat="45.76911" lon="5.99515">
        <ele>687.960693</ele>
        <time>2011-07-03T07:49:47Z</time>
      </trkpt>
      <trkpt lat="45.76864" lon="5.99515">
        <ele>691.805908</ele>
        <time>2011-07-03T07:50:13Z</time>
      </trkpt>
      <trkpt lat="45.76831" lon="5.99527">
        <ele>692.286621</ele>
        <time>2011-07-03T07:50:30Z</time>
      </trkpt>
      <trkpt lat="45.76782" lon="5.99532">
        <ele>692.767334</ele>
        <time>2011-07-03T07:50:47Z</time>
      </trkpt>
      <trkpt lat="45.76703" lon="5.99545">
        <ele>692.767334</ele>
        <time>2011-07-03T07:51:02Z</time>
      </trkpt>
      <trkpt lat="45.76587" lon="5.99579">
        <ele>689.402588</ele>
        <time>2011-07-03T07:51:17Z</time>
      </trkpt>
      <trkpt lat="45.76546" lon="5.99587">
        <ele>687.960693</ele>
        <time>2011-07-03T07:51:22Z</time>
      </trkpt>
      <trkpt lat="45.76501" lon="5.9956">
        <ele>686.518799</ele>
        <time>2011-07-03T07:51:29Z</time>
      </trkpt>
      <trkpt lat="45.7649" lon="5.99553">
        <ele>686.038086</ele>
        <time>2011-07-03T07:51:31Z</time>
      </trkpt>
      <trkpt lat="45.76477" lon="5.99568">
        <ele>685.557373</ele>
        <time>2011-07-03T07:51:35Z</time>
      </trkpt>
      <trkpt lat="45.76467" lon="5.99635">
        <ele>686.518799</ele>
        <time>2011-07-03T07:51:44Z</time>
      </trkpt>
      <trkpt lat="45.76454" lon="5.99675">
        <ele>686.518799</ele>
        <time>2011-07-03T07:51:51Z</time>
      </trkpt>
      <trkpt lat="45.76402" lon="5.99733">
        <ele>683.153809</ele>
        <time>2011-07-03T07:52:03Z</time>
      </trkpt>
      <trkpt lat="45.76372" lon="5.99755">
        <ele>681.711914</ele>
        <time>2011-07-03T07:52:08Z</time>
      </trkpt>
      <trkpt lat="45.76349" lon="5.99778">
        <ele>681.711914</ele>
        <time>2011-07-03T07:52:13Z</time>
      </trkpt>
      <trkpt lat="45.76338" lon="5.99809">
        <ele>682.192627</ele>
        <time>2011-07-03T07:52:17Z</time>
      </trkpt>
      <trkpt lat="45.76329" lon="5.99864">
        <ele>682.192627</ele>
        <time>2011-07-03T07:52:24Z</time>
      </trkpt>
      <trkpt lat="45.76325" lon="5.99886">
        <ele>681.711914</ele>
        <time>2011-07-03T07:52:27Z</time>
      </trkpt>
      <trkpt lat="45.76325" lon="5.99918">
        <ele>681.231445</ele>
        <time>2011-07-03T07:52:31Z</time>
      </trkpt>
      <trkpt lat="45.76336" lon="5.9995">
        <ele>679.308594</ele>
        <time>2011-07-03T07:52:36Z</time>
      </trkpt>
      <trkpt lat="45.76321" lon="6.00006">
        <ele>678.347412</ele>
        <time>2011-07-03T07:52:43Z</time>
      </trkpt>
      <trkpt lat="45.76312" lon="6.00025">
        <ele>678.347412</ele>
        <time>2011-07-03T07:52:45Z</time>
      </trkpt>
      <trkpt lat="45.76278" lon="6.00057">
        <ele>676.905518</ele>
        <time>2011-07-03T07:52:50Z</time>
      </trkpt>
      <trkpt lat="45.76237" lon="6.00083">
        <ele>674.502197</ele>
        <time>2011-07-03T07:52:55Z</time>
      </trkpt>
      <trkpt lat="45.7622" lon="6.00075">
        <ele>674.021484</ele>
        <time>2011-07-03T07:52:59Z</time>
      </trkpt>
      <trkpt lat="45.76168" lon="6.00017">
        <ele>669.695801</ele>
        <time>2011-07-03T07:53:17Z</time>
      </trkpt>
      <trkpt lat="45.76121" lon="5.9995">
        <ele>666.811523</ele>
        <time>2011-07-03T07:53:35Z</time>
      </trkpt>
      <trkpt lat="45.76052" lon="5.99905">
        <ele>666.330811</ele>
        <time>2011-07-03T07:53:50Z</time>
      </trkpt>
      <trkpt lat="45.76033" lon="5.9989">
        <ele>664.408203</ele>
        <time>2011-07-03T07:53:55Z</time>
      </trkpt>
      <trkpt lat="45.75969" lon="5.99806">
        <ele>663.447021</ele>
        <time>2011-07-03T07:54:14Z</time>
      </trkpt>
      <trkpt lat="45.75956" lon="5.99789">
        <ele>662.966309</ele>
        <time>2011-07-03T07:54:17Z</time>
      </trkpt>
      <trkpt lat="45.75902" lon="5.99697">
        <ele>659.601807</ele>
        <time>2011-07-03T07:54:26Z</time>
      </trkpt>
      <trkpt lat="45.759" lon="5.9965">
        <ele>656.237061</ele>
        <time>2011-07-03T07:54:30Z</time>
      </trkpt>
      <trkpt lat="45.75887" lon="5.99605">
        <ele>653.353271</ele>
        <time>2011-07-03T07:54:34Z</time>
      </trkpt>
      <trkpt lat="45.75829" lon="5.99472">
        <ele>650.469238</ele>
        <time>2011-07-03T07:54:48Z</time>
      </trkpt>
      <trkpt lat="45.75812" lon="5.99439">
        <ele>648.546387</ele>
        <time>2011-07-03T07:54:52Z</time>
      </trkpt>
      <trkpt lat="45.75795" lon="5.99403">
        <ele>644.220703</ele>
        <time>2011-07-03T07:54:58Z</time>
      </trkpt>
      <trkpt lat="45.75739" lon="5.99362">
        <ele>640.855957</ele>
        <time>2011-07-03T07:55:07Z</time>
      </trkpt>
      <trkpt lat="45.75728" lon="5.99354">
        <ele>638.452881</ele>
        <time>2011-07-03T07:55:09Z</time>
      </trkpt>
      <trkpt lat="45.7569" lon="5.99326">
        <ele>631.723389</ele>
        <time>2011-07-03T07:55:14Z</time>
      </trkpt>
      <trkpt lat="45.7557" lon="5.99272">
        <ele>621.14917</ele>
        <time>2011-07-03T07:55:27Z</time>
      </trkpt>
      <trkpt lat="45.7555" lon="5.99263">
        <ele>619.226318</ele>
        <time>2011-07-03T07:55:29Z</time>
      </trkpt>
      <trkpt lat="45.7551" lon="5.99268">
        <ele>612.016602</ele>
        <time>2011-07-03T07:55:36Z</time>
      </trkpt>
      <trkpt lat="45.75501" lon="5.993">
        <ele>607.690674</ele>
        <time>2011-07-03T07:55:39Z</time>
      </trkpt>
      <trkpt lat="45.75499" lon="5.99341">
        <ele>603.364502</ele>
        <time>2011-07-03T07:55:42Z</time>
      </trkpt>
      <trkpt lat="45.75465" lon="5.99489">
        <ele>594.712646</ele>
        <time>2011-07-03T07:55:53Z</time>
      </trkpt>
      <trkpt lat="45.75462" lon="5.99577">
        <ele>590.386963</ele>
        <time>2011-07-03T07:56:01Z</time>
      </trkpt>
      <trkpt lat="45.75488" lon="5.99641">
        <ele>586.060791</ele>
        <time>2011-07-03T07:56:11Z</time>
      </trkpt>
      <trkpt lat="45.75488" lon="5.99658">
        <ele>583.657471</ele>
        <time>2011-07-03T07:56:15Z</time>
      </trkpt>
      <trkpt lat="45.75495" lon="5.99699">
        <ele>579.812256</ele>
        <time>2011-07-03T07:56:21Z</time>
      </trkpt>
      <trkpt lat="45.75533" lon="5.99766">
        <ele>572.602539</ele>
        <time>2011-07-03T07:56:29Z</time>
      </trkpt>
      <trkpt lat="45.75542" lon="5.99789">
        <ele>570.198975</ele>
        <time>2011-07-03T07:56:31Z</time>
      </trkpt>
      <trkpt lat="45.75553" lon="5.99901">
        <ele>565.392578</ele>
        <time>2011-07-03T07:56:39Z</time>
      </trkpt>
      <trkpt lat="45.75557" lon="5.99927">
        <ele>563.469971</ele>
        <time>2011-07-03T07:56:42Z</time>
      </trkpt>
      <trkpt lat="45.75529" lon="5.99961">
        <ele>558.182861</ele>
        <time>2011-07-03T07:56:48Z</time>
      </trkpt>
      <trkpt lat="45.7551" lon="5.99974">
        <ele>555.779297</ele>
        <time>2011-07-03T07:56:51Z</time>
      </trkpt>
      <trkpt lat="45.75469" lon="6.00012">
        <ele>552.895264</ele>
        <time>2011-07-03T07:56:58Z</time>
      </trkpt>
      <trkpt lat="45.75447" lon="6.00019">
        <ele>551.934082</ele>
        <time>2011-07-03T07:57:02Z</time>
      </trkpt>
      <trkpt lat="45.75413" lon="6.0003">
        <ele>551.453369</ele>
        <time>2011-07-03T07:57:09Z</time>
      </trkpt>
      <trkpt lat="45.75398" lon="6.00012">
        <ele>549.530762</ele>
        <time>2011-07-03T07:57:12Z</time>
      </trkpt>
      <trkpt lat="45.75379" lon="6.00014">
        <ele>543.762817</ele>
        <time>2011-07-03T07:57:18Z</time>
      </trkpt>
      <trkpt lat="45.75377" lon="6.00023">
        <ele>542.320923</ele>
        <time>2011-07-03T07:57:19Z</time>
      </trkpt>
      <trkpt lat="45.7537" lon="6.00051">
        <ele>538.956299</ele>
        <time>2011-07-03T07:57:22Z</time>
      </trkpt>
      <trkpt lat="45.75362" lon="6.0007">
        <ele>536.553101</ele>
        <time>2011-07-03T07:57:26Z</time>
      </trkpt>
      <trkpt lat="45.75357" lon="6.00072">
        <ele>535.591553</ele>
        <time>2011-07-03T07:57:29Z</time>
      </trkpt>
      <trkpt lat="45.75342" lon="6.00062">
        <ele>533.188354</ele>
        <time>2011-07-03T07:57:36Z</time>
      </trkpt>
      <trkpt lat="45.75325" lon="6.00042">
        <ele>531.746338</ele>
        <time>2011-07-03T07:57:41Z</time>
      </trkpt>
      <trkpt lat="45.75308" lon="6.00038">
        <ele>531.746338</ele>
        <time>2011-07-03T07:57:45Z</time>
      </trkpt>
      <trkpt lat="45.75289" lon="6.00045">
        <ele>530.304443</ele>
        <time>2011-07-03T07:57:48Z</time>
      </trkpt>
      <trkpt lat="45.75241" lon="6.00012">
        <ele>525.017212</ele>
        <time>2011-07-03T07:57:55Z</time>
      </trkpt>
      <trkpt lat="45.75138" lon="5.99976">
        <ele>522.613892</ele>
        <time>2011-07-03T07:58:09Z</time>
      </trkpt>
      <trkpt lat="45.7511" lon="5.99967">
        <ele>523.094604</ele>
        <time>2011-07-03T07:58:13Z</time>
      </trkpt>
      <trkpt lat="45.75089" lon="5.9998">
        <ele>523.575195</ele>
        <time>2011-07-03T07:58:18Z</time>
      </trkpt>
      <trkpt lat="45.75057" lon="6.00021">
        <ele>520.210571</ele>
        <time>2011-07-03T07:58:26Z</time>
      </trkpt>
      <trkpt lat="45.74971" lon="6.00014">
        <ele>520.210571</ele>
        <time>2011-07-03T07:58:39Z</time>
      </trkpt>
      <trkpt lat="45.74943" lon="6.00006">
        <ele>521.171997</ele>
        <time>2011-07-03T07:58:44Z</time>
      </trkpt>
      <trkpt lat="45.74868" lon="6.00027">
        <ele>521.171997</ele>
        <time>2011-07-03T07:59:01Z</time>
      </trkpt>
      <trkpt lat="45.74859" lon="6.00034">
        <ele>521.652588</ele>
        <time>2011-07-03T07:59:03Z</time>
      </trkpt>
      <trkpt lat="45.74847" lon="6.00047">
        <ele>522.133179</ele>
        <time>2011-07-03T07:59:07Z</time>
      </trkpt>
      <trkpt lat="45.74842" lon="6.00141">
        <ele>522.613892</ele>
        <time>2011-07-03T07:59:12Z</time>
      </trkpt>
      <trkpt lat="45.74801" lon="6.00253">
        <ele>518.768555</ele>
        <time>2011-07-03T07:59:30Z</time>
      </trkpt>
      <trkpt lat="45.74774" lon="6.00289">
        <ele>519.729858</ele>
        <time>2011-07-03T07:59:42Z</time>
      </trkpt>
      <trkpt lat="45.74774" lon="6.00293">
        <ele>518.768555</ele>
        <time>2011-07-03T08:00:00Z</time>
      </trkpt>
      <trkpt lat="45.74778" lon="6.00291">
        <ele>513.481445</ele>
        <time>2011-07-03T08:00:52Z</time>
      </trkpt>
      <trkpt lat="45.74776" lon="6.00291">
        <ele>515.404053</ele>
        <time>2011-07-03T08:01:30Z</time>
      </trkpt>
      <trkpt lat="45.74776" lon="6.00291">
        <ele>515.404053</ele>
        <time>2011-07-03T08:01:38Z</time>
      </trkpt>
      <trkpt lat="45.7478" lon="6.00308">
        <ele>515.404053</ele>
        <time>2011-07-03T08:01:48Z</time>
      </trkpt>
      <trkpt lat="45.74786" lon="6.00351">
        <ele>516.365234</ele>
        <time>2011-07-03T08:02:03Z</time>
      </trkpt>
      <trkpt lat="45.74806" lon="6.00392">
        <ele>518.768555</ele>
        <time>2011-07-03T08:02:17Z</time>
      </trkpt>
      <trkpt lat="45.74829" lon="6.00448">
        <ele>522.613892</ele>
        <time>2011-07-03T08:02:32Z</time>
      </trkpt>
      <trkpt lat="45.74847" lon="6.00506">
        <ele>524.536499</ele>
        <time>2011-07-03T08:02:48Z</time>
      </trkpt>
      <trkpt lat="45.7487" lon="6.0056">
        <ele>525.017212</ele>
        <time>2011-07-03T08:03:02Z</time>
      </trkpt>
      <trkpt lat="45.74894" lon="6.006">
        <ele>525.497803</ele>
        <time>2011-07-03T08:03:12Z</time>
      </trkpt>
      <trkpt lat="45.74926" lon="6.00641">
        <ele>528.381836</ele>
        <time>2011-07-03T08:03:24Z</time>
      </trkpt>
      <trkpt lat="45.74973" lon="6.00673">
        <ele>530.785156</ele>
        <time>2011-07-03T08:03:41Z</time>
      </trkpt>
      <trkpt lat="45.75025" lon="6.00697">
        <ele>528.381836</ele>
        <time>2011-07-03T08:03:55Z</time>
      </trkpt>
      <trkpt lat="45.75053" lon="6.00768">
        <ele>527.901001</ele>
        <time>2011-07-03T08:04:09Z</time>
      </trkpt>
      <trkpt lat="45.75128" lon="6.00963">
        <ele>527.42041</ele>
        <time>2011-07-03T08:04:34Z</time>
      </trkpt>
      <trkpt lat="45.75119" lon="6.01044">
        <ele>532.227051</ele>
        <time>2011-07-03T08:04:51Z</time>
      </trkpt>
      <trkpt lat="45.75136" lon="6.01075">
        <ele>534.630371</ele>
        <time>2011-07-03T08:05:09Z</time>
      </trkpt>
      <trkpt lat="45.75173" lon="6.01111">
        <ele>536.553101</ele>
        <time>2011-07-03T08:05:26Z</time>
      </trkpt>
      <trkpt lat="45.75231" lon="6.01165">
        <ele>538.956299</ele>
        <time>2011-07-03T08:05:44Z</time>
      </trkpt>
      <trkpt lat="45.75316" lon="6.0122">
        <ele>542.801514</ele>
        <time>2011-07-03T08:06:05Z</time>
      </trkpt>
      <trkpt lat="45.75364" lon="6.01263">
        <ele>543.762817</ele>
        <time>2011-07-03T08:06:23Z</time>
      </trkpt>
      <trkpt lat="45.75394" lon="6.01317">
        <ele>544.243652</ele>
        <time>2011-07-03T08:06:39Z</time>
      </trkpt>
      <trkpt lat="45.75419" lon="6.01394">
        <ele>545.204834</ele>
        <time>2011-07-03T08:06:55Z</time>
      </trkpt>
      <trkpt lat="45.75437" lon="6.01467">
        <ele>551.934082</ele>
        <time>2011-07-03T08:07:11Z</time>
      </trkpt>
      <trkpt lat="45.75456" lon="6.01517">
        <ele>553.856689</ele>
        <time>2011-07-03T08:07:25Z</time>
      </trkpt>
      <trkpt lat="45.75492" lon="6.01557">
        <ele>555.779297</ele>
        <time>2011-07-03T08:07:40Z</time>
      </trkpt>
      <trkpt lat="45.75473" lon="6.01579">
        <ele>556.740723</ele>
        <time>2011-07-03T08:07:52Z</time>
      </trkpt>
      <trkpt lat="45.75402" lon="6.0166">
        <ele>556.740723</ele>
        <time>2011-07-03T08:08:15Z</time>
      </trkpt>
      <trkpt lat="45.75379" lon="6.01695">
        <ele>557.221436</ele>
        <time>2011-07-03T08:08:31Z</time>
      </trkpt>
      <trkpt lat="45.75368" lon="6.01718">
        <ele>557.702148</ele>
        <time>2011-07-03T08:08:42Z</time>
      </trkpt>
      <trkpt lat="45.75359" lon="6.01712">
        <ele>558.182861</ele>
        <time>2011-07-03T08:08:47Z</time>
      </trkpt>
      <trkpt lat="45.75323" lon="6.01671">
        <ele>561.547363</ele>
        <time>2011-07-03T08:09:09Z</time>
      </trkpt>
      <trkpt lat="45.75286" lon="6.01665">
        <ele>562.508545</ele>
        <time>2011-07-03T08:09:26Z</time>
      </trkpt>
      <trkpt lat="45.75233" lon="6.0166">
        <ele>567.795654</ele>
        <time>2011-07-03T08:09:50Z</time>
      </trkpt>
      <trkpt lat="45.75203" lon="6.01639">
        <ele>570.198975</ele>
        <time>2011-07-03T08:10:05Z</time>
      </trkpt>
      <trkpt lat="45.7516" lon="6.01607">
        <ele>574.044434</ele>
        <time>2011-07-03T08:10:26Z</time>
      </trkpt>
      <trkpt lat="45.75138" lon="6.01581">
        <ele>576.928467</ele>
        <time>2011-07-03T08:10:38Z</time>
      </trkpt>
      <trkpt lat="45.75108" lon="6.01551">
        <ele>576.928467</ele>
        <time>2011-07-03T08:10:54Z</time>
      </trkpt>
      <trkpt lat="45.75104" lon="6.01559">
        <ele>578.851074</ele>
        <time>2011-07-03T08:10:59Z</time>
      </trkpt>
      <trkpt lat="45.75106" lon="6.01598">
        <ele>579.331543</ele>
        <time>2011-07-03T08:11:15Z</time>
      </trkpt>
      <trkpt lat="45.75102" lon="6.01622">
        <ele>579.812256</ele>
        <time>2011-07-03T08:11:23Z</time>
      </trkpt>
      <trkpt lat="45.75091" lon="6.01622">
        <ele>581.254395</ele>
        <time>2011-07-03T08:11:30Z</time>
      </trkpt>
      <trkpt lat="45.75072" lon="6.01602">
        <ele>584.618896</ele>
        <time>2011-07-03T08:11:48Z</time>
      </trkpt>
      <trkpt lat="45.75072" lon="6.01613">
        <ele>584.618896</ele>
        <time>2011-07-03T08:11:52Z</time>
      </trkpt>
      <trkpt lat="45.7507" lon="6.01622">
        <ele>585.099609</ele>
        <time>2011-07-03T08:11:56Z</time>
      </trkpt>
      <trkpt lat="45.75063" lon="6.01673">
        <ele>588.464355</ele>
        <time>2011-07-03T08:12:18Z</time>
      </trkpt>
      <trkpt lat="45.75055" lon="6.01716">
        <ele>591.828857</ele>
        <time>2011-07-03T08:12:38Z</time>
      </trkpt>
      <trkpt lat="45.75014" lon="6.01714">
        <ele>592.790283</ele>
        <time>2011-07-03T08:13:02Z</time>
      </trkpt>
      <trkpt lat="45.74992" lon="6.0174">
        <ele>596.154785</ele>
        <time>2011-07-03T08:13:26Z</time>
      </trkpt>
      <trkpt lat="45.74973" lon="6.01742">
        <ele>601.441895</ele>
        <time>2011-07-03T08:13:44Z</time>
      </trkpt>
      <trkpt lat="45.7493" lon="6.01738">
        <ele>603.364502</ele>
        <time>2011-07-03T08:14:11Z</time>
      </trkpt>
      <trkpt lat="45.74911" lon="6.01738">
        <ele>614.900391</ele>
        <time>2011-07-03T08:14:29Z</time>
      </trkpt>
      <trkpt lat="45.74904" lon="6.01759">
        <ele>617.78418</ele>
        <time>2011-07-03T08:14:49Z</time>
      </trkpt>
      <trkpt lat="45.74904" lon="6.01755">
        <ele>621.14917</ele>
        <time>2011-07-03T08:15:37Z</time>
      </trkpt>
      <trkpt lat="45.74922" lon="6.01783">
        <ele>622.110352</ele>
        <time>2011-07-03T08:15:57Z</time>
      </trkpt>
      <trkpt lat="45.7495" lon="6.01811">
        <ele>624.513672</ele>
        <time>2011-07-03T08:16:12Z</time>
      </trkpt>
      <trkpt lat="45.74952" lon="6.01817">
        <ele>624.513672</ele>
        <time>2011-07-03T08:16:15Z</time>
      </trkpt>
      <trkpt lat="45.74947" lon="6.0183">
        <ele>625.474854</ele>
        <time>2011-07-03T08:16:19Z</time>
      </trkpt>
      <trkpt lat="45.74939" lon="6.01858">
        <ele>629.800781</ele>
        <time>2011-07-03T08:16:30Z</time>
      </trkpt>
      <trkpt lat="45.74971" lon="6.01873">
        <ele>631.723389</ele>
        <time>2011-07-03T08:16:44Z</time>
      </trkpt>
      <trkpt lat="45.75012" lon="6.01888">
        <ele>633.645996</ele>
        <time>2011-07-03T08:17:04Z</time>
      </trkpt>
      <trkpt lat="45.75048" lon="6.01916">
        <ele>637.972168</ele>
        <time>2011-07-03T08:17:22Z</time>
      </trkpt>
      <trkpt lat="45.75078" lon="6.01946">
        <ele>638.933594</ele>
        <time>2011-07-03T08:17:38Z</time>
      </trkpt>
      <trkpt lat="45.75123" lon="6.01965">
        <ele>639.414063</ele>
        <time>2011-07-03T08:17:53Z</time>
      </trkpt>
      <trkpt lat="45.75218" lon="6.01995">
        <ele>638.452881</ele>
        <time>2011-07-03T08:18:19Z</time>
      </trkpt>
      <trkpt lat="45.75224" lon="6.01997">
        <ele>638.452881</ele>
        <time>2011-07-03T08:18:21Z</time>
      </trkpt>
      <trkpt lat="45.75222" lon="6.02038">
        <ele>637.010742</ele>
        <time>2011-07-03T08:18:29Z</time>
      </trkpt>
      <trkpt lat="45.75218" lon="6.02057">
        <ele>637.010742</ele>
        <time>2011-07-03T08:18:32Z</time>
      </trkpt>
      <trkpt lat="45.75205" lon="6.02111">
        <ele>635.088135</ele>
        <time>2011-07-03T08:18:40Z</time>
      </trkpt>
      <trkpt lat="45.75201" lon="6.02115">
        <ele>634.607422</ele>
        <time>2011-07-03T08:18:41Z</time>
      </trkpt>
      <trkpt lat="45.75181" lon="6.02167">
        <ele>632.204102</ele>
        <time>2011-07-03T08:18:46Z</time>
      </trkpt>
      <trkpt lat="45.7522" lon="6.02186">
        <ele>628.358887</ele>
        <time>2011-07-03T08:18:55Z</time>
      </trkpt>
      <trkpt lat="45.75239" lon="6.02199">
        <ele>626.916992</ele>
        <time>2011-07-03T08:18:58Z</time>
      </trkpt>
      <trkpt lat="45.75319" lon="6.02216">
        <ele>622.591064</ele>
        <time>2011-07-03T08:19:09Z</time>
      </trkpt>
      <trkpt lat="45.75349" lon="6.02222">
        <ele>621.629639</ele>
        <time>2011-07-03T08:19:14Z</time>
      </trkpt>
      <trkpt lat="45.75402" lon="6.02205">
        <ele>619.226318</ele>
        <time>2011-07-03T08:19:24Z</time>
      </trkpt>
      <trkpt lat="45.75495" lon="6.02203">
        <ele>612.016602</ele>
        <time>2011-07-03T08:19:39Z</time>
      </trkpt>
      <trkpt lat="45.75565" lon="6.02227">
        <ele>609.613281</ele>
        <time>2011-07-03T08:19:51Z</time>
      </trkpt>
      <trkpt lat="45.75585" lon="6.02233">
        <ele>608.651855</ele>
        <time>2011-07-03T08:19:54Z</time>
      </trkpt>
      <trkpt lat="45.75604" lon="6.02242">
        <ele>606.729248</ele>
        <time>2011-07-03T08:20:00Z</time>
      </trkpt>
      <trkpt lat="45.7557" lon="6.02295">
        <ele>605.287354</ele>
        <time>2011-07-03T08:20:14Z</time>
      </trkpt>
      <trkpt lat="45.75542" lon="6.02364">
        <ele>603.845215</ele>
        <time>2011-07-03T08:20:23Z</time>
      </trkpt>
      <trkpt lat="45.75548" lon="6.02422">
        <ele>603.845215</ele>
        <time>2011-07-03T08:20:32Z</time>
      </trkpt>
      <trkpt lat="45.75613" lon="6.02456">
        <ele>601.441895</ele>
        <time>2011-07-03T08:20:49Z</time>
      </trkpt>
      <trkpt lat="45.75651" lon="6.02476">
        <ele>603.845215</ele>
        <time>2011-07-03T08:21:07Z</time>
      </trkpt>
      <trkpt lat="45.75677" lon="6.02495">
        <ele>601.441895</ele>
        <time>2011-07-03T08:21:19Z</time>
      </trkpt>
      <trkpt lat="45.75716" lon="6.02538">
        <ele>601.922607</ele>
        <time>2011-07-03T08:21:35Z</time>
      </trkpt>
      <trkpt lat="45.75748" lon="6.02583">
        <ele>600.480713</ele>
        <time>2011-07-03T08:21:51Z</time>
      </trkpt>
      <trkpt lat="45.7575" lon="6.02583">
        <ele>600</ele>
        <time>2011-07-03T08:21:52Z</time>
      </trkpt>
      <trkpt lat="45.75765" lon="6.02589">
        <ele>599.038574</ele>
        <time>2011-07-03T08:21:56Z</time>
      </trkpt>
      <trkpt lat="45.75814" lon="6.0263">
        <ele>598.557861</ele>
        <time>2011-07-03T08:22:13Z</time>
      </trkpt>
      <trkpt lat="45.75857" lon="6.02675">
        <ele>600.480713</ele>
        <time>2011-07-03T08:22:32Z</time>
      </trkpt>
      <trkpt lat="45.75898" lon="6.02718">
        <ele>596.154785</ele>
        <time>2011-07-03T08:22:46Z</time>
      </trkpt>
      <trkpt lat="45.75902" lon="6.02725">
        <ele>595.193359</ele>
        <time>2011-07-03T08:22:47Z</time>
      </trkpt>
      <trkpt lat="45.75945" lon="6.02714">
        <ele>586.060791</ele>
        <time>2011-07-03T08:22:53Z</time>
      </trkpt>
      <trkpt lat="45.75975" lon="6.02695">
        <ele>580.773682</ele>
        <time>2011-07-03T08:22:57Z</time>
      </trkpt>
      <trkpt lat="45.76016" lon="6.0266">
        <ele>576.447754</ele>
        <time>2011-07-03T08:23:03Z</time>
      </trkpt>
      <trkpt lat="45.7604" lon="6.0263">
        <ele>571.640869</ele>
        <time>2011-07-03T08:23:09Z</time>
      </trkpt>
      <trkpt lat="45.76065" lon="6.02624">
        <ele>566.834473</ele>
        <time>2011-07-03T08:23:15Z</time>
      </trkpt>
      <trkpt lat="45.7607" lon="6.0263">
        <ele>565.873291</ele>
        <time>2011-07-03T08:23:16Z</time>
      </trkpt>
      <trkpt lat="45.76095" lon="6.02667">
        <ele>562.989258</ele>
        <time>2011-07-03T08:23:21Z</time>
      </trkpt>
      <trkpt lat="45.76136" lon="6.02688">
        <ele>560.585938</ele>
        <time>2011-07-03T08:23:27Z</time>
      </trkpt>
      <trkpt lat="45.76201" lon="6.02688">
        <ele>556.740723</ele>
        <time>2011-07-03T08:23:35Z</time>
      </trkpt>
      <trkpt lat="45.76239" lon="6.02703">
        <ele>555.298584</ele>
        <time>2011-07-03T08:23:40Z</time>
      </trkpt>
      <trkpt lat="45.76263" lon="6.02697">
        <ele>554.817871</ele>
        <time>2011-07-03T08:23:44Z</time>
      </trkpt>
      <trkpt lat="45.76282" lon="6.02697">
        <ele>554.337402</ele>
        <time>2011-07-03T08:23:51Z</time>
      </trkpt>
      <trkpt lat="45.76293" lon="6.0272">
        <ele>551.453369</ele>
        <time>2011-07-03T08:24:03Z</time>
      </trkpt>
      <trkpt lat="45.76291" lon="6.02718">
        <ele>549.050049</ele>
        <time>2011-07-03T08:24:33Z</time>
      </trkpt>
      <trkpt lat="45.76306" lon="6.02746">
        <ele>546.16626</ele>
        <time>2011-07-03T08:24:48Z</time>
      </trkpt>
      <trkpt lat="45.76361" lon="6.02828">
        <ele>548.569336</ele>
        <time>2011-07-03T08:25:08Z</time>
      </trkpt>
      <trkpt lat="45.76424" lon="6.02907">
        <ele>545.685547</ele>
        <time>2011-07-03T08:25:27Z</time>
      </trkpt>
      <trkpt lat="45.76492" lon="6.02999">
        <ele>545.685547</ele>
        <time>2011-07-03T08:25:47Z</time>
      </trkpt>
      <trkpt lat="45.76499" lon="6.03016">
        <ele>545.685547</ele>
        <time>2011-07-03T08:25:50Z</time>
      </trkpt>
      <trkpt lat="45.76501" lon="6.03036">
        <ele>546.16626</ele>
        <time>2011-07-03T08:25:53Z</time>
      </trkpt>
      <trkpt lat="45.76495" lon="6.03059">
        <ele>546.16626</ele>
        <time>2011-07-03T08:25:57Z</time>
      </trkpt>
      <trkpt lat="45.76488" lon="6.03074">
        <ele>545.685547</ele>
        <time>2011-07-03T08:26:00Z</time>
      </trkpt>
      <trkpt lat="45.76484" lon="6.03094">
        <ele>545.204834</ele>
        <time>2011-07-03T08:26:03Z</time>
      </trkpt>
      <trkpt lat="45.76488" lon="6.03171">
        <ele>544.724243</ele>
        <time>2011-07-03T08:26:19Z</time>
      </trkpt>
      <trkpt lat="45.76544" lon="6.03192">
        <ele>545.204834</ele>
        <time>2011-07-03T08:26:32Z</time>
      </trkpt>
      <trkpt lat="45.76582" lon="6.03214">
        <ele>546.646851</ele>
        <time>2011-07-03T08:26:40Z</time>
      </trkpt>
      <trkpt lat="45.76598" lon="6.03231">
        <ele>548.088867</ele>
        <time>2011-07-03T08:26:44Z</time>
      </trkpt>
      <trkpt lat="45.76645" lon="6.03315">
        <ele>550.011475</ele>
        <time>2011-07-03T08:27:01Z</time>
      </trkpt>
      <trkpt lat="45.76696" lon="6.03396">
        <ele>547.608154</ele>
        <time>2011-07-03T08:27:17Z</time>
      </trkpt>
      <trkpt lat="45.76752" lon="6.03491">
        <ele>542.320923</ele>
        <time>2011-07-03T08:27:30Z</time>
      </trkpt>
      <trkpt lat="45.76765" lon="6.03519">
        <ele>541.359497</ele>
        <time>2011-07-03T08:27:33Z</time>
      </trkpt>
      <trkpt lat="45.7678" lon="6.03536">
        <ele>540.878906</ele>
        <time>2011-07-03T08:27:37Z</time>
      </trkpt>
      <trkpt lat="45.76849" lon="6.03499">
        <ele>534.630371</ele>
        <time>2011-07-03T08:27:50Z</time>
      </trkpt>
      <trkpt lat="45.76861" lon="6.03491">
        <ele>534.149658</ele>
        <time>2011-07-03T08:27:52Z</time>
      </trkpt>
      <trkpt lat="45.76949" lon="6.03349">
        <ele>526.939819</ele>
        <time>2011-07-03T08:28:06Z</time>
      </trkpt>
      <trkpt lat="45.76962" lon="6.0333">
        <ele>526.939819</ele>
        <time>2011-07-03T08:28:08Z</time>
      </trkpt>
      <trkpt lat="45.7699" lon="6.03328">
        <ele>526.459106</ele>
        <time>2011-07-03T08:28:11Z</time>
      </trkpt>
      <trkpt lat="45.77022" lon="6.03349">
        <ele>526.459106</ele>
        <time>2011-07-03T08:28:15Z</time>
      </trkpt>
      <trkpt lat="45.77059" lon="6.03403">
        <ele>524.055786</ele>
        <time>2011-07-03T08:28:22Z</time>
      </trkpt>
      <trkpt lat="45.77091" lon="6.03439">
        <ele>522.613892</ele>
        <time>2011-07-03T08:28:26Z</time>
      </trkpt>
      <trkpt lat="45.77158" lon="6.03467">
        <ele>522.613892</ele>
        <time>2011-07-03T08:28:32Z</time>
      </trkpt>
      <trkpt lat="45.77207" lon="6.03516">
        <ele>523.094604</ele>
        <time>2011-07-03T08:28:38Z</time>
      </trkpt>
      <trkpt lat="45.77215" lon="6.0372">
        <ele>523.575195</ele>
        <time>2011-07-03T08:28:53Z</time>
      </trkpt>
      <trkpt lat="45.77278" lon="6.03744">
        <ele>523.575195</ele>
        <time>2011-07-03T08:29:01Z</time>
      </trkpt>
      <trkpt lat="45.77312" lon="6.03774">
        <ele>513.481445</ele>
        <time>2011-07-03T08:29:05Z</time>
      </trkpt>
      <trkpt lat="45.77327" lon="6.03819">
        <ele>509.636108</ele>
        <time>2011-07-03T08:29:08Z</time>
      </trkpt>
      <trkpt lat="45.774" lon="6.03843">
        <ele>494.255005</ele>
        <time>2011-07-03T08:29:15Z</time>
      </trkpt>
      <trkpt lat="45.77413" lon="6.03843">
        <ele>436.095215</ele>
        <time>2011-07-03T08:29:18Z</time>
      </trkpt>
      <trkpt lat="45.77424" lon="6.03843">
        <ele>431.769165</ele>
        <time>2011-07-03T08:29:21Z</time>
      </trkpt>
      <trkpt lat="45.77449" lon="6.03896">
        <ele>435.614502</ele>
        <time>2011-07-03T08:29:35Z</time>
      </trkpt>
      <trkpt lat="45.77452" lon="6.03898">
        <ele>435.614502</ele>
        <time>2011-07-03T08:29:36Z</time>
      </trkpt>
      <trkpt lat="45.77445" lon="6.03907">
        <ele>435.133911</ele>
        <time>2011-07-03T08:29:40Z</time>
      </trkpt>
      <trkpt lat="45.77424" lon="6.03922">
        <ele>432.25</ele>
        <time>2011-07-03T08:29:49Z</time>
      </trkpt>
      <trkpt lat="45.77366" lon="6.03965">
        <ele>431.769165</ele>
        <time>2011-07-03T08:30:08Z</time>
      </trkpt>
      <trkpt lat="45.77321" lon="6.04044">
        <ele>432.730713</ele>
        <time>2011-07-03T08:30:27Z</time>
      </trkpt>
      <trkpt lat="45.77316" lon="6.04059">
        <ele>433.691895</ele>
        <time>2011-07-03T08:30:31Z</time>
      </trkpt>
      <trkpt lat="45.77321" lon="6.04081">
        <ele>433.211304</ele>
        <time>2011-07-03T08:30:38Z</time>
      </trkpt>
      <trkpt lat="45.77316" lon="6.04137">
        <ele>433.691895</ele>
        <time>2011-07-03T08:30:51Z</time>
      </trkpt>
      <trkpt lat="45.77312" lon="6.04197">
        <ele>434.172607</ele>
        <time>2011-07-03T08:31:08Z</time>
      </trkpt>
      <trkpt lat="45.77308" lon="6.04263">
        <ele>435.133911</ele>
        <time>2011-07-03T08:31:28Z</time>
      </trkpt>
      <trkpt lat="45.7731" lon="6.04319">
        <ele>435.133911</ele>
        <time>2011-07-03T08:31:47Z</time>
      </trkpt>
      <trkpt lat="45.7731" lon="6.04334">
        <ele>437.537109</ele>
        <time>2011-07-03T08:32:03Z</time>
      </trkpt>
      <trkpt lat="45.7731" lon="6.04343">
        <ele>437.537109</ele>
        <time>2011-07-03T08:32:11Z</time>
      </trkpt>
      <trkpt lat="45.77306" lon="6.0436">
        <ele>440.421265</ele>
        <time>2011-07-03T08:32:32Z</time>
      </trkpt>
      <trkpt lat="45.77299" lon="6.04381">
        <ele>444.266479</ele>
        <time>2011-07-03T08:33:13Z</time>
      </trkpt>
      <trkpt lat="45.77293" lon="6.0439">
        <ele>443.305054</ele>
        <time>2011-07-03T08:33:24Z</time>
      </trkpt>
      <trkpt lat="45.77276" lon="6.04409">
        <ele>447.150269</ele>
        <time>2011-07-03T08:33:48Z</time>
      </trkpt>
      <trkpt lat="45.77276" lon="6.04418">
        <ele>448.111816</ele>
        <time>2011-07-03T08:34:02Z</time>
      </trkpt>
      <trkpt lat="45.77263" lon="6.04435">
        <ele>448.111816</ele>
        <time>2011-07-03T08:34:20Z</time>
      </trkpt>
      <trkpt lat="45.77265" lon="6.04435">
        <ele>450.515015</ele>
        <time>2011-07-03T08:34:26Z</time>
      </trkpt>
      <trkpt lat="45.77265" lon="6.04437">
        <ele>453.879639</ele>
        <time>2011-07-03T08:34:34Z</time>
      </trkpt>
      <trkpt lat="45.77261" lon="6.04443">
        <ele>455.802246</ele>
        <time>2011-07-03T08:34:51Z</time>
      </trkpt>
      <trkpt lat="45.77258" lon="6.04443">
        <ele>457.244263</ele>
        <time>2011-07-03T08:35:05Z</time>
      </trkpt>
      <trkpt lat="45.77248" lon="6.04443">
        <ele>454.84082</ele>
        <time>2011-07-03T08:35:21Z</time>
      </trkpt>
      <trkpt lat="45.77239" lon="6.0445">
        <ele>454.84082</ele>
        <time>2011-07-03T08:35:39Z</time>
      </trkpt>
      <trkpt lat="45.77224" lon="6.04461">
        <ele>456.76355</ele>
        <time>2011-07-03T08:36:01Z</time>
      </trkpt>
      <trkpt lat="45.772" lon="6.04471">
        <ele>456.76355</ele>
        <time>2011-07-03T08:36:41Z</time>
      </trkpt>
      <trkpt lat="45.77166" lon="6.04478">
        <ele>457.724976</ele>
        <time>2011-07-03T08:37:06Z</time>
      </trkpt>
      <trkpt lat="45.77123" lon="6.04497">
        <ele>456.76355</ele>
        <time>2011-07-03T08:37:23Z</time>
      </trkpt>
      <trkpt lat="45.77065" lon="6.04512">
        <ele>450.515015</ele>
        <time>2011-07-03T08:37:41Z</time>
      </trkpt>
      <trkpt lat="45.77018" lon="6.04559">
        <ele>447.630981</ele>
        <time>2011-07-03T08:38:02Z</time>
      </trkpt>
      <trkpt lat="45.77003" lon="6.04624">
        <ele>450.995605</ele>
        <time>2011-07-03T08:38:23Z</time>
      </trkpt>
      <trkpt lat="45.76992" lon="6.04718">
        <ele>453.879639</ele>
        <time>2011-07-03T08:38:47Z</time>
      </trkpt>
      <trkpt lat="45.76979" lon="6.04825">
        <ele>450.515015</ele>
        <time>2011-07-03T08:39:10Z</time>
      </trkpt>
      <trkpt lat="45.76962" lon="6.04922">
        <ele>450.034424</ele>
        <time>2011-07-03T08:39:33Z</time>
      </trkpt>
      <trkpt lat="45.76949" lon="6.04941">
        <ele>453.398926</ele>
        <time>2011-07-03T08:39:56Z</time>
      </trkpt>
      <trkpt lat="45.76947" lon="6.04941">
        <ele>449.553711</ele>
        <time>2011-07-03T08:40:07Z</time>
      </trkpt>
      <trkpt lat="45.76934" lon="6.0498">
        <ele>453.398926</ele>
        <time>2011-07-03T08:40:24Z</time>
      </trkpt>
      <trkpt lat="45.7693" lon="6.04995">
        <ele>463.492798</ele>
        <time>2011-07-03T08:40:55Z</time>
      </trkpt>
      <trkpt lat="45.76937" lon="6.04993">
        <ele>462.531372</ele>
        <time>2011-07-03T08:41:04Z</time>
      </trkpt>
      <trkpt lat="45.76967" lon="6.0496">
        <ele>461.089478</ele>
        <time>2011-07-03T08:41:29Z</time>
      </trkpt>
      <trkpt lat="45.76992" lon="6.04952">
        <ele>463.492798</ele>
        <time>2011-07-03T08:41:47Z</time>
      </trkpt>
      <trkpt lat="45.77029" lon="6.04924">
        <ele>459.647583</ele>
        <time>2011-07-03T08:42:14Z</time>
      </trkpt>
      <trkpt lat="45.77063" lon="6.0487">
        <ele>459.647583</ele>
        <time>2011-07-03T08:42:39Z</time>
      </trkpt>
      <trkpt lat="45.77089" lon="6.04815">
        <ele>463.492798</ele>
        <time>2011-07-03T08:43:03Z</time>
      </trkpt>
      <trkpt lat="45.77117" lon="6.04754">
        <ele>467.818726</ele>
        <time>2011-07-03T08:43:27Z</time>
      </trkpt>
      <trkpt lat="45.7714" lon="6.04712">
        <ele>474.067261</ele>
        <time>2011-07-03T08:43:46Z</time>
      </trkpt>
      <trkpt lat="45.77173" lon="6.04667">
        <ele>482.238525</ele>
        <time>2011-07-03T08:44:11Z</time>
      </trkpt>
      <trkpt lat="45.772" lon="6.04636">
        <ele>486.08374</ele>
        <time>2011-07-03T08:44:29Z</time>
      </trkpt>
      <trkpt lat="45.77209" lon="6.0463">
        <ele>484.641846</ele>
        <time>2011-07-03T08:44:36Z</time>
      </trkpt>
      <trkpt lat="45.77237" lon="6.04594">
        <ele>488.487183</ele>
        <time>2011-07-03T08:44:54Z</time>
      </trkpt>
      <trkpt lat="45.7725" lon="6.04583">
        <ele>488.967773</ele>
        <time>2011-07-03T08:45:02Z</time>
      </trkpt>
      <trkpt lat="45.77256" lon="6.04583">
        <ele>490.890381</ele>
        <time>2011-07-03T08:45:06Z</time>
      </trkpt>
      <trkpt lat="45.77295" lon="6.04606">
        <ele>499.542236</ele>
        <time>2011-07-03T08:45:28Z</time>
      </trkpt>
      <trkpt lat="45.77325" lon="6.04626">
        <ele>504.829468</ele>
        <time>2011-07-03T08:45:47Z</time>
      </trkpt>
      <trkpt lat="45.77357" lon="6.04649">
        <ele>508.674683</ele>
        <time>2011-07-03T08:46:08Z</time>
      </trkpt>
      <trkpt lat="45.77389" lon="6.04669">
        <ele>510.59729</ele>
        <time>2011-07-03T08:46:28Z</time>
      </trkpt>
      <trkpt lat="45.77419" lon="6.04688">
        <ele>513.481445</ele>
        <time>2011-07-03T08:46:48Z</time>
      </trkpt>
      <trkpt lat="45.77449" lon="6.04716">
        <ele>515.404053</ele>
        <time>2011-07-03T08:47:02Z</time>
      </trkpt>
      <trkpt lat="45.77458" lon="6.04727">
        <ele>517.32666</ele>
        <time>2011-07-03T08:47:08Z</time>
      </trkpt>
      <trkpt lat="45.77473" lon="6.04737">
        <ele>518.768555</ele>
        <time>2011-07-03T08:47:15Z</time>
      </trkpt>
      <trkpt lat="45.77527" lon="6.04744">
        <ele>522.133179</ele>
        <time>2011-07-03T08:47:36Z</time>
      </trkpt>
      <trkpt lat="45.77567" lon="6.04729">
        <ele>526.459106</ele>
        <time>2011-07-03T08:47:54Z</time>
      </trkpt>
      <trkpt lat="45.77591" lon="6.04686">
        <ele>530.785156</ele>
        <time>2011-07-03T08:48:13Z</time>
      </trkpt>
      <trkpt lat="45.77617" lon="6.0469">
        <ele>534.630371</ele>
        <time>2011-07-03T08:48:29Z</time>
      </trkpt>
      <trkpt lat="45.77649" lon="6.04692">
        <ele>535.591553</ele>
        <time>2011-07-03T08:48:44Z</time>
      </trkpt>
      <trkpt lat="45.7769" lon="6.04714">
        <ele>537.514282</ele>
        <time>2011-07-03T08:49:04Z</time>
      </trkpt>
      <trkpt lat="45.77728" lon="6.04754">
        <ele>541.359497</ele>
        <time>2011-07-03T08:49:28Z</time>
      </trkpt>
      <trkpt lat="45.77737" lon="6.04772">
        <ele>543.282104</ele>
        <time>2011-07-03T08:49:38Z</time>
      </trkpt>
      <trkpt lat="45.77733" lon="6.04776">
        <ele>542.801514</ele>
        <time>2011-07-03T08:49:42Z</time>
      </trkpt>
      <trkpt lat="45.77709" lon="6.0481">
        <ele>543.282104</ele>
        <time>2011-07-03T08:50:01Z</time>
      </trkpt>
      <trkpt lat="45.77681" lon="6.04849">
        <ele>544.243652</ele>
        <time>2011-07-03T08:50:19Z</time>
      </trkpt>
      <trkpt lat="45.77645" lon="6.04896">
        <ele>544.724243</ele>
        <time>2011-07-03T08:50:37Z</time>
      </trkpt>
      <trkpt lat="45.77619" lon="6.04939">
        <ele>545.204834</ele>
        <time>2011-07-03T08:50:52Z</time>
      </trkpt>
      <trkpt lat="45.77582" lon="6.0496">
        <ele>546.646851</ele>
        <time>2011-07-03T08:51:08Z</time>
      </trkpt>
      <trkpt lat="45.77539" lon="6.05012">
        <ele>548.088867</ele>
        <time>2011-07-03T08:51:28Z</time>
      </trkpt>
      <trkpt lat="45.77531" lon="6.05021">
        <ele>548.569336</ele>
        <time>2011-07-03T08:51:32Z</time>
      </trkpt>
      <trkpt lat="45.77531" lon="6.05027">
        <ele>549.530762</ele>
        <time>2011-07-03T08:51:43Z</time>
      </trkpt>
      <trkpt lat="45.77533" lon="6.05029">
        <ele>549.050049</ele>
        <time>2011-07-03T08:58:03Z</time>
      </trkpt>
      <trkpt lat="45.77531" lon="6.05027">
        <ele>550.011475</ele>
        <time>2011-07-03T08:58:19Z</time>
      </trkpt>
      <trkpt lat="45.77531" lon="6.05027">
        <ele>550.972656</ele>
        <time>2011-07-03T08:59:07Z</time>
      </trkpt>
      <trkpt lat="45.77529" lon="6.05025">
        <ele>550.972656</ele>
        <time>2011-07-03T08:59:15Z</time>
      </trkpt>
      <trkpt lat="45.77514" lon="6.05033">
        <ele>550.011475</ele>
        <time>2011-07-03T08:59:26Z</time>
      </trkpt>
      <trkpt lat="45.77484" lon="6.05081">
        <ele>550.492188</ele>
        <time>2011-07-03T08:59:46Z</time>
      </trkpt>
      <trkpt lat="45.77456" lon="6.05126">
        <ele>552.895264</ele>
        <time>2011-07-03T09:00:03Z</time>
      </trkpt>
      <trkpt lat="45.77424" lon="6.05175">
        <ele>555.298584</ele>
        <time>2011-07-03T09:00:22Z</time>
      </trkpt>
      <trkpt lat="45.77398" lon="6.05214">
        <ele>558.182861</ele>
        <time>2011-07-03T09:00:38Z</time>
      </trkpt>
      <trkpt lat="45.77359" lon="6.05254">
        <ele>559.624756</ele>
        <time>2011-07-03T09:00:58Z</time>
      </trkpt>
      <trkpt lat="45.7731" lon="6.05306">
        <ele>562.028076</ele>
        <time>2011-07-03T09:01:20Z</time>
      </trkpt>
      <trkpt lat="45.77263" lon="6.05347">
        <ele>563.469971</ele>
        <time>2011-07-03T09:01:38Z</time>
      </trkpt>
      <trkpt lat="45.77237" lon="6.054">
        <ele>567.795654</ele>
        <time>2011-07-03T09:01:53Z</time>
      </trkpt>
      <trkpt lat="45.77218" lon="6.0543">
        <ele>569.718506</ele>
        <time>2011-07-03T09:02:05Z</time>
      </trkpt>
      <trkpt lat="45.77188" lon="6.05452">
        <ele>570.679688</ele>
        <time>2011-07-03T09:02:19Z</time>
      </trkpt>
      <trkpt lat="45.77138" lon="6.05471">
        <ele>571.1604</ele>
        <time>2011-07-03T09:02:35Z</time>
      </trkpt>
      <trkpt lat="45.77095" lon="6.05514">
        <ele>573.563965</ele>
        <time>2011-07-03T09:02:53Z</time>
      </trkpt>
      <trkpt lat="45.77057" lon="6.05559">
        <ele>576.928467</ele>
        <time>2011-07-03T09:03:13Z</time>
      </trkpt>
      <trkpt lat="45.7704" lon="6.05572">
        <ele>580.292969</ele>
        <time>2011-07-03T09:03:26Z</time>
      </trkpt>
      <trkpt lat="45.77027" lon="6.05591">
        <ele>580.292969</ele>
        <time>2011-07-03T09:03:39Z</time>
      </trkpt>
      <trkpt lat="45.76997" lon="6.05617">
        <ele>586.060791</ele>
        <time>2011-07-03T09:03:56Z</time>
      </trkpt>
      <trkpt lat="45.76962" lon="6.05656">
        <ele>591.348145</ele>
        <time>2011-07-03T09:04:18Z</time>
      </trkpt>
      <trkpt lat="45.76932" lon="6.05699">
        <ele>594.712646</ele>
        <time>2011-07-03T09:04:39Z</time>
      </trkpt>
      <trkpt lat="45.76911" lon="6.05729">
        <ele>599.519287</ele>
        <time>2011-07-03T09:04:55Z</time>
      </trkpt>
      <trkpt lat="45.76876" lon="6.0575">
        <ele>599.038574</ele>
        <time>2011-07-03T09:05:12Z</time>
      </trkpt>
      <trkpt lat="45.76823" lon="6.05806">
        <ele>598.557861</ele>
        <time>2011-07-03T09:05:32Z</time>
      </trkpt>
      <trkpt lat="45.76758" lon="6.05832">
        <ele>600.480713</ele>
        <time>2011-07-03T09:05:48Z</time>
      </trkpt>
      <trkpt lat="45.76722" lon="6.0586">
        <ele>601.922607</ele>
        <time>2011-07-03T09:05:57Z</time>
      </trkpt>
      <trkpt lat="45.7669" lon="6.05866">
        <ele>602.403076</ele>
        <time>2011-07-03T09:06:04Z</time>
      </trkpt>
      <trkpt lat="45.76675" lon="6.0586">
        <ele>602.883789</ele>
        <time>2011-07-03T09:06:08Z</time>
      </trkpt>
      <trkpt lat="45.76653" lon="6.05853">
        <ele>603.364502</ele>
        <time>2011-07-03T09:06:13Z</time>
      </trkpt>
      <trkpt lat="45.76591" lon="6.05866">
        <ele>604.326172</ele>
        <time>2011-07-03T09:06:27Z</time>
      </trkpt>
      <trkpt lat="45.76574" lon="6.05877">
        <ele>604.326172</ele>
        <time>2011-07-03T09:06:31Z</time>
      </trkpt>
      <trkpt lat="45.76518" lon="6.05956">
        <ele>604.806641</ele>
        <time>2011-07-03T09:06:49Z</time>
      </trkpt>
      <trkpt lat="45.76437" lon="6.0601">
        <ele>606.248535</ele>
        <time>2011-07-03T09:07:09Z</time>
      </trkpt>
      <trkpt lat="45.76432" lon="6.06014">
        <ele>606.729248</ele>
        <time>2011-07-03T09:07:10Z</time>
      </trkpt>
      <trkpt lat="45.76407" lon="6.06063">
        <ele>608.171387</ele>
        <time>2011-07-03T09:07:19Z</time>
      </trkpt>
      <trkpt lat="45.76387" lon="6.06136">
        <ele>608.171387</ele>
        <time>2011-07-03T09:07:30Z</time>
      </trkpt>
      <trkpt lat="45.76372" lon="6.06162">
        <ele>608.651855</ele>
        <time>2011-07-03T09:07:35Z</time>
      </trkpt>
      <trkpt lat="45.76286" lon="6.06229">
        <ele>612.016602</ele>
        <time>2011-07-03T09:07:59Z</time>
      </trkpt>
      <trkpt lat="45.76235" lon="6.06242">
        <ele>612.016602</ele>
        <time>2011-07-03T09:08:11Z</time>
      </trkpt>
      <trkpt lat="45.7622" lon="6.06252">
        <ele>612.016602</ele>
        <time>2011-07-03T09:08:15Z</time>
      </trkpt>
      <trkpt lat="45.7617" lon="6.06345">
        <ele>615.381104</ele>
        <time>2011-07-03T09:08:34Z</time>
      </trkpt>
      <trkpt lat="45.7616" lon="6.06437">
        <ele>616.822998</ele>
        <time>2011-07-03T09:08:50Z</time>
      </trkpt>
      <trkpt lat="45.76151" lon="6.06484">
        <ele>617.303711</ele>
        <time>2011-07-03T09:08:58Z</time>
      </trkpt>
      <trkpt lat="45.76147" lon="6.06495">
        <ele>617.78418</ele>
        <time>2011-07-03T09:09:00Z</time>
      </trkpt>
      <trkpt lat="45.76134" lon="6.06512">
        <ele>618.264893</ele>
        <time>2011-07-03T09:09:04Z</time>
      </trkpt>
      <trkpt lat="45.76113" lon="6.06531">
        <ele>619.226318</ele>
        <time>2011-07-03T09:09:10Z</time>
      </trkpt>
      <trkpt lat="45.76106" lon="6.06555">
        <ele>621.14917</ele>
        <time>2011-07-03T09:09:15Z</time>
      </trkpt>
      <trkpt lat="45.76108" lon="6.06561">
        <ele>622.110352</ele>
        <time>2011-07-03T09:09:17Z</time>
      </trkpt>
      <trkpt lat="45.76102" lon="6.06574">
        <ele>623.55249</ele>
        <time>2011-07-03T09:09:22Z</time>
      </trkpt>
      <trkpt lat="45.76048" lon="6.06613">
        <ele>626.916992</ele>
        <time>2011-07-03T09:09:45Z</time>
      </trkpt>
      <trkpt lat="45.7599" lon="6.06641">
        <ele>628.8396</ele>
        <time>2011-07-03T09:10:11Z</time>
      </trkpt>
      <trkpt lat="45.75958" lon="6.06688">
        <ele>634.126709</ele>
        <time>2011-07-03T09:10:33Z</time>
      </trkpt>
      <trkpt lat="45.75919" lon="6.06724">
        <ele>637.010742</ele>
        <time>2011-07-03T09:10:52Z</time>
      </trkpt>
      <trkpt lat="45.75885" lon="6.06772">
        <ele>640.375488</ele>
        <time>2011-07-03T09:11:10Z</time>
      </trkpt>
      <trkpt lat="45.75849" lon="6.06832">
        <ele>644.220703</ele>
        <time>2011-07-03T09:11:30Z</time>
      </trkpt>
      <trkpt lat="45.75797" lon="6.06872">
        <ele>645.662598</ele>
        <time>2011-07-03T09:11:51Z</time>
      </trkpt>
      <trkpt lat="45.75746" lon="6.06909">
        <ele>645.662598</ele>
        <time>2011-07-03T09:12:10Z</time>
      </trkpt>
      <trkpt lat="45.75688" lon="6.06947">
        <ele>647.104492</ele>
        <time>2011-07-03T09:12:30Z</time>
      </trkpt>
      <trkpt lat="45.75645" lon="6.0699">
        <ele>647.585205</ele>
        <time>2011-07-03T09:12:46Z</time>
      </trkpt>
      <trkpt lat="45.75619" lon="6.07044">
        <ele>648.065918</ele>
        <time>2011-07-03T09:13:02Z</time>
      </trkpt>
      <trkpt lat="45.75598" lon="6.0713">
        <ele>651.911133</ele>
        <time>2011-07-03T09:13:23Z</time>
      </trkpt>
      <trkpt lat="45.75589" lon="6.07224">
        <ele>653.833984</ele>
        <time>2011-07-03T09:13:35Z</time>
      </trkpt>
      <trkpt lat="45.75563" lon="6.07276">
        <ele>654.795166</ele>
        <time>2011-07-03T09:13:46Z</time>
      </trkpt>
      <trkpt lat="45.75546" lon="6.07297">
        <ele>654.314697</ele>
        <time>2011-07-03T09:13:50Z</time>
      </trkpt>
      <trkpt lat="45.75488" lon="6.07366">
        <ele>652.391846</ele>
        <time>2011-07-03T09:13:58Z</time>
      </trkpt>
      <trkpt lat="45.75473" lon="6.07396">
        <ele>651.43042</ele>
        <time>2011-07-03T09:14:01Z</time>
      </trkpt>
      <trkpt lat="45.75454" lon="6.07426">
        <ele>652.391846</ele>
        <time>2011-07-03T09:14:05Z</time>
      </trkpt>
      <trkpt lat="45.75381" lon="6.07473">
        <ele>652.872559</ele>
        <time>2011-07-03T09:14:20Z</time>
      </trkpt>
      <trkpt lat="45.7537" lon="6.0748">
        <ele>652.872559</ele>
        <time>2011-07-03T09:14:23Z</time>
      </trkpt>
      <trkpt lat="45.75338" lon="6.0752">
        <ele>656.237061</ele>
        <time>2011-07-03T09:14:38Z</time>
      </trkpt>
      <trkpt lat="45.75286" lon="6.07611">
        <ele>658.640381</ele>
        <time>2011-07-03T09:14:58Z</time>
      </trkpt>
      <trkpt lat="45.75246" lon="6.07744">
        <ele>657.198486</ele>
        <time>2011-07-03T09:15:14Z</time>
      </trkpt>
      <trkpt lat="45.75246" lon="6.07754">
        <ele>656.717773</ele>
        <time>2011-07-03T09:15:15Z</time>
      </trkpt>
      <trkpt lat="45.75244" lon="6.07804">
        <ele>654.795166</ele>
        <time>2011-07-03T09:15:20Z</time>
      </trkpt>
      <trkpt lat="45.75237" lon="6.07853">
        <ele>652.391846</ele>
        <time>2011-07-03T09:15:25Z</time>
      </trkpt>
      <trkpt lat="45.75224" lon="6.07894">
        <ele>650.469238</ele>
        <time>2011-07-03T09:15:30Z</time>
      </trkpt>
      <trkpt lat="45.75205" lon="6.07915">
        <ele>649.0271</ele>
        <time>2011-07-03T09:15:37Z</time>
      </trkpt>
      <trkpt lat="45.75203" lon="6.07902">
        <ele>649.988525</ele>
        <time>2011-07-03T09:15:39Z</time>
      </trkpt>
      <trkpt lat="45.75203" lon="6.07844">
        <ele>646.143311</ele>
        <time>2011-07-03T09:15:45Z</time>
      </trkpt>
      <trkpt lat="45.7519" lon="6.07827">
        <ele>642.778809</ele>
        <time>2011-07-03T09:15:51Z</time>
      </trkpt>
      <trkpt lat="45.75186" lon="6.07836">
        <ele>642.778809</ele>
        <time>2011-07-03T09:15:53Z</time>
      </trkpt>
      <trkpt lat="45.75158" lon="6.07958">
        <ele>639.894775</ele>
        <time>2011-07-03T09:16:12Z</time>
      </trkpt>
      <trkpt lat="45.75147" lon="6.07997">
        <ele>639.894775</ele>
        <time>2011-07-03T09:16:18Z</time>
      </trkpt>
      <trkpt lat="45.75102" lon="6.08104">
        <ele>637.972168</ele>
        <time>2011-07-03T09:16:31Z</time>
      </trkpt>
      <trkpt lat="45.75089" lon="6.08143">
        <ele>637.491455</ele>
        <time>2011-07-03T09:16:35Z</time>
      </trkpt>
      <trkpt lat="45.75093" lon="6.08168">
        <ele>637.010742</ele>
        <time>2011-07-03T09:16:39Z</time>
      </trkpt>
      <trkpt lat="45.75108" lon="6.08173">
        <ele>637.010742</ele>
        <time>2011-07-03T09:16:47Z</time>
      </trkpt>
      <trkpt lat="45.75113" lon="6.08175">
        <ele>637.491455</ele>
        <time>2011-07-03T09:16:49Z</time>
      </trkpt>
      <trkpt lat="45.75143" lon="6.08177">
        <ele>638.452881</ele>
        <time>2011-07-03T09:17:03Z</time>
      </trkpt>
      <trkpt lat="45.75143" lon="6.08192">
        <ele>639.414063</ele>
        <time>2011-07-03T09:17:09Z</time>
      </trkpt>
      <trkpt lat="45.75121" lon="6.08267">
        <ele>639.414063</ele>
        <time>2011-07-03T09:17:27Z</time>
      </trkpt>
      <trkpt lat="45.75091" lon="6.08362">
        <ele>637.491455</ele>
        <time>2011-07-03T09:17:43Z</time>
      </trkpt>
      <trkpt lat="45.75068" lon="6.08462">
        <ele>637.010742</ele>
        <time>2011-07-03T09:17:58Z</time>
      </trkpt>
      <trkpt lat="45.75046" lon="6.08527">
        <ele>637.010742</ele>
        <time>2011-07-03T09:18:14Z</time>
      </trkpt>
      <trkpt lat="45.75014" lon="6.086">
        <ele>637.972168</ele>
        <time>2011-07-03T09:18:27Z</time>
      </trkpt>
      <trkpt lat="45.74995" lon="6.08735">
        <ele>636.049561</ele>
        <time>2011-07-03T09:18:42Z</time>
      </trkpt>
      <trkpt lat="45.74962" lon="6.08855">
        <ele>634.126709</ele>
        <time>2011-07-03T09:18:57Z</time>
      </trkpt>
      <trkpt lat="45.7496" lon="6.08911">
        <ele>633.645996</ele>
        <time>2011-07-03T09:19:04Z</time>
      </trkpt>
      <trkpt lat="45.7495" lon="6.0896">
        <ele>632.684814</ele>
        <time>2011-07-03T09:19:10Z</time>
      </trkpt>
      <trkpt lat="45.74881" lon="6.09119">
        <ele>634.126709</ele>
        <time>2011-07-03T09:19:31Z</time>
      </trkpt>
      <trkpt lat="45.74844" lon="6.09205">
        <ele>632.684814</ele>
        <time>2011-07-03T09:19:42Z</time>
      </trkpt>
      <trkpt lat="45.74836" lon="6.09256">
        <ele>631.24292</ele>
        <time>2011-07-03T09:19:48Z</time>
      </trkpt>
      <trkpt lat="45.74756" lon="6.09353">
        <ele>626.436279</ele>
        <time>2011-07-03T09:20:00Z</time>
      </trkpt>
      <trkpt lat="45.74729" lon="6.09389">
        <ele>624.513672</ele>
        <time>2011-07-03T09:20:04Z</time>
      </trkpt>
      <trkpt lat="45.74722" lon="6.09415">
        <ele>623.55249</ele>
        <time>2011-07-03T09:20:07Z</time>
      </trkpt>
      <trkpt lat="45.74724" lon="6.09454">
        <ele>623.55249</ele>
        <time>2011-07-03T09:20:12Z</time>
      </trkpt>
      <trkpt lat="45.74718" lon="6.09492">
        <ele>624.513672</ele>
        <time>2011-07-03T09:20:24Z</time>
      </trkpt>
      <trkpt lat="45.7469" lon="6.09555">
        <ele>624.032959</ele>
        <time>2011-07-03T09:20:49Z</time>
      </trkpt>
      <trkpt lat="45.7466" lon="6.09589">
        <ele>624.513672</ele>
        <time>2011-07-03T09:20:56Z</time>
      </trkpt>
      <trkpt lat="45.74651" lon="6.09597">
        <ele>624.513672</ele>
        <time>2011-07-03T09:20:58Z</time>
      </trkpt>
      <trkpt lat="45.74647" lon="6.09602">
        <ele>624.513672</ele>
        <time>2011-07-03T09:21:00Z</time>
      </trkpt>
      <trkpt lat="45.74604" lon="6.09658">
        <ele>624.513672</ele>
        <time>2011-07-03T09:21:22Z</time>
      </trkpt>
      <trkpt lat="45.7457" lon="6.09685">
        <ele>626.436279</ele>
        <time>2011-07-03T09:21:39Z</time>
      </trkpt>
      <trkpt lat="45.74542" lon="6.09698">
        <ele>626.436279</ele>
        <time>2011-07-03T09:21:46Z</time>
      </trkpt>
      <trkpt lat="45.74488" lon="6.09743">
        <ele>628.358887</ele>
        <time>2011-07-03T09:22:07Z</time>
      </trkpt>
      <trkpt lat="45.74475" lon="6.09788">
        <ele>630.281494</ele>
        <time>2011-07-03T09:22:25Z</time>
      </trkpt>
      <trkpt lat="45.74462" lon="6.0984">
        <ele>628.8396</ele>
        <time>2011-07-03T09:22:46Z</time>
      </trkpt>
      <trkpt lat="45.74422" lon="6.09876">
        <ele>633.645996</ele>
        <time>2011-07-03T09:23:06Z</time>
      </trkpt>
      <trkpt lat="45.74374" lon="6.09919">
        <ele>639.414063</ele>
        <time>2011-07-03T09:23:26Z</time>
      </trkpt>
      <trkpt lat="45.74317" lon="6.09971">
        <ele>638.452881</ele>
        <time>2011-07-03T09:23:46Z</time>
      </trkpt>
      <trkpt lat="45.74218" lon="6.09943">
        <ele>638.452881</ele>
        <time>2011-07-03T09:23:58Z</time>
      </trkpt>
      <trkpt lat="45.74175" lon="6.09947">
        <ele>638.452881</ele>
        <time>2011-07-03T09:24:03Z</time>
      </trkpt>
      <trkpt lat="45.74076" lon="6.09964">
        <ele>637.491455</ele>
        <time>2011-07-03T09:24:16Z</time>
      </trkpt>
      <trkpt lat="45.74059" lon="6.09973">
        <ele>637.010742</ele>
        <time>2011-07-03T09:24:19Z</time>
      </trkpt>
      <trkpt lat="45.7401" lon="6.09962">
        <ele>636.530273</ele>
        <time>2011-07-03T09:24:27Z</time>
      </trkpt>
      <trkpt lat="45.7399" lon="6.09958">
        <ele>636.530273</ele>
        <time>2011-07-03T09:24:30Z</time>
      </trkpt>
      <trkpt lat="45.7389" lon="6.09967">
        <ele>632.684814</ele>
        <time>2011-07-03T09:24:44Z</time>
      </trkpt>
      <trkpt lat="45.73875" lon="6.09969">
        <ele>632.684814</ele>
        <time>2011-07-03T09:24:46Z</time>
      </trkpt>
      <trkpt lat="45.73853" lon="6.09954">
        <ele>631.723389</ele>
        <time>2011-07-03T09:24:51Z</time>
      </trkpt>
      <trkpt lat="45.73836" lon="6.09943">
        <ele>631.723389</ele>
        <time>2011-07-03T09:24:55Z</time>
      </trkpt>
      <trkpt lat="45.73819" lon="6.09939">
        <ele>631.723389</ele>
        <time>2011-07-03T09:24:58Z</time>
      </trkpt>
      <trkpt lat="45.73791" lon="6.09904">
        <ele>631.723389</ele>
        <time>2011-07-03T09:25:03Z</time>
      </trkpt>
      <trkpt lat="45.73722" lon="6.09881">
        <ele>627.397705</ele>
        <time>2011-07-03T09:25:13Z</time>
      </trkpt>
      <trkpt lat="45.73688" lon="6.09868">
        <ele>623.55249</ele>
        <time>2011-07-03T09:25:19Z</time>
      </trkpt>
      <trkpt lat="45.73641" lon="6.09853">
        <ele>622.110352</ele>
        <time>2011-07-03T09:25:29Z</time>
      </trkpt>
      <trkpt lat="45.73574" lon="6.09851">
        <ele>614.900391</ele>
        <time>2011-07-03T09:25:40Z</time>
      </trkpt>
      <trkpt lat="45.73559" lon="6.09838">
        <ele>612.49707</ele>
        <time>2011-07-03T09:25:44Z</time>
      </trkpt>
      <trkpt lat="45.7357" lon="6.09808">
        <ele>607.209961</ele>
        <time>2011-07-03T09:25:50Z</time>
      </trkpt>
      <trkpt lat="45.73593" lon="6.09803">
        <ele>596.635498</ele>
        <time>2011-07-03T09:26:01Z</time>
      </trkpt>
      <trkpt lat="45.73638" lon="6.0981">
        <ele>587.021973</ele>
        <time>2011-07-03T09:26:14Z</time>
      </trkpt>
      <trkpt lat="45.73739" lon="6.09812">
        <ele>575.967041</ele>
        <time>2011-07-03T09:26:34Z</time>
      </trkpt>
      <trkpt lat="45.73849" lon="6.0981">
        <ele>568.276367</ele>
        <time>2011-07-03T09:26:55Z</time>
      </trkpt>
      <trkpt lat="45.73954" lon="6.0981">
        <ele>565.873291</ele>
        <time>2011-07-03T09:27:14Z</time>
      </trkpt>
      <trkpt lat="45.73958" lon="6.0981">
        <ele>565.392578</ele>
        <time>2011-07-03T09:27:15Z</time>
      </trkpt>
      <trkpt lat="45.74072" lon="6.09849">
        <ele>560.105225</ele>
        <time>2011-07-03T09:27:36Z</time>
      </trkpt>
      <trkpt lat="45.74168" lon="6.0984">
        <ele>560.105225</ele>
        <time>2011-07-03T09:27:53Z</time>
      </trkpt>
      <trkpt lat="45.74209" lon="6.09819">
        <ele>559.624756</ele>
        <time>2011-07-03T09:28:00Z</time>
      </trkpt>
      <trkpt lat="45.74325" lon="6.09707">
        <ele>558.66333</ele>
        <time>2011-07-03T09:28:24Z</time>
      </trkpt>
      <trkpt lat="45.74435" lon="6.09572">
        <ele>556.740723</ele>
        <time>2011-07-03T09:28:49Z</time>
      </trkpt>
      <trkpt lat="45.74477" lon="6.09469">
        <ele>555.298584</ele>
        <time>2011-07-03T09:29:03Z</time>
      </trkpt>
      <trkpt lat="45.74477" lon="6.09437">
        <ele>555.298584</ele>
        <time>2011-07-03T09:29:07Z</time>
      </trkpt>
      <trkpt lat="45.74473" lon="6.094">
        <ele>556.26001</ele>
        <time>2011-07-03T09:29:12Z</time>
      </trkpt>
      <trkpt lat="45.74473" lon="6.09379">
        <ele>556.26001</ele>
        <time>2011-07-03T09:29:15Z</time>
      </trkpt>
      <trkpt lat="45.74477" lon="6.09351">
        <ele>556.26001</ele>
        <time>2011-07-03T09:29:19Z</time>
      </trkpt>
      <trkpt lat="45.7449" lon="6.09319">
        <ele>555.779297</ele>
        <time>2011-07-03T09:29:24Z</time>
      </trkpt>
      <trkpt lat="45.7454" lon="6.09235">
        <ele>556.26001</ele>
        <time>2011-07-03T09:29:42Z</time>
      </trkpt>
      <trkpt lat="45.74565" lon="6.09132">
        <ele>556.740723</ele>
        <time>2011-07-03T09:30:03Z</time>
      </trkpt>
      <trkpt lat="45.74572" lon="6.09055">
        <ele>560.585938</ele>
        <time>2011-07-03T09:30:27Z</time>
      </trkpt>
      <trkpt lat="45.74583" lon="6.08975">
        <ele>561.06665</ele>
        <time>2011-07-03T09:30:56Z</time>
      </trkpt>
      <trkpt lat="45.74583" lon="6.08922">
        <ele>571.1604</ele>
        <time>2011-07-03T09:31:21Z</time>
      </trkpt>
      <trkpt lat="45.7458" lon="6.08866">
        <ele>576.928467</ele>
        <time>2011-07-03T09:31:49Z</time>
      </trkpt>
      <trkpt lat="45.74563" lon="6.08804">
        <ele>577.40918</ele>
        <time>2011-07-03T09:32:13Z</time>
      </trkpt>
      <trkpt lat="45.74555" lon="6.08737">
        <ele>576.447754</ele>
        <time>2011-07-03T09:32:36Z</time>
      </trkpt>
      <trkpt lat="45.7455" lon="6.08658">
        <ele>577.889648</ele>
        <time>2011-07-03T09:33:03Z</time>
      </trkpt>
      <trkpt lat="45.74555" lon="6.08563">
        <ele>579.812256</ele>
        <time>2011-07-03T09:33:27Z</time>
      </trkpt>
      <trkpt lat="45.74553" lon="6.08505">
        <ele>581.734863</ele>
        <time>2011-07-03T09:33:46Z</time>
      </trkpt>
      <trkpt lat="45.74548" lon="6.08428">
        <ele>588.464355</ele>
        <time>2011-07-03T09:34:17Z</time>
      </trkpt>
      <trkpt lat="45.74548" lon="6.08338">
        <ele>590.867432</ele>
        <time>2011-07-03T09:34:56Z</time>
      </trkpt>
      <trkpt lat="45.74568" lon="6.08254">
        <ele>596.635498</ele>
        <time>2011-07-03T09:35:30Z</time>
      </trkpt>
      <trkpt lat="45.74598" lon="6.08168">
        <ele>596.635498</ele>
        <time>2011-07-03T09:36:01Z</time>
      </trkpt>
      <trkpt lat="45.74617" lon="6.08033">
        <ele>597.59668</ele>
        <time>2011-07-03T09:36:39Z</time>
      </trkpt>
      <trkpt lat="45.74615" lon="6.07902">
        <ele>600</ele>
        <time>2011-07-03T09:37:19Z</time>
      </trkpt>
    </trkseg>
  </trk>
  <trk>
    <name><![CDATA[ACTIVE LOG 001]]></name>
    <trkseg>
      <trkpt lat="45.74776" lon="6.07184">
        <ele>584.618896</ele>
        <time>2011-07-03T09:38:52Z</time>
      </trkpt>
      <trkpt lat="45.74789" lon="6.07164">
        <ele>582.215576</ele>
        <time>2011-07-03T09:38:54Z</time>
      </trkpt>
      <trkpt lat="45.74834" lon="6.07145">
        <ele>600.961182</ele>
        <time>2011-07-03T09:39:07Z</time>
      </trkpt>
    </trkseg>
  </trk>
  <trk>
    <name><![CDATA[ACTIVE LOG 002]]></name>
    <trkseg>
      <trkpt lat="45.74928" lon="6.06909">
        <ele>620.668457</ele>
        <time>2011-07-03T09:39:54Z</time>
      </trkpt>
      <trkpt lat="45.74932" lon="6.06881">
        <ele>609.613281</ele>
        <time>2011-07-03T09:39:57Z</time>
      </trkpt>
      <trkpt lat="45.74971" lon="6.06733">
        <ele>600.961182</ele>
        <time>2011-07-03T09:40:16Z</time>
      </trkpt>
      <trkpt lat="45.75083" lon="6.06518">
        <ele>601.922607</ele>
        <time>2011-07-03T09:40:49Z</time>
      </trkpt>
      <trkpt lat="45.75181" lon="6.06327">
        <ele>602.403076</ele>
        <time>2011-07-03T09:41:19Z</time>
      </trkpt>
      <trkpt lat="45.75252" lon="6.06214">
        <ele>602.883789</ele>
        <time>2011-07-03T09:41:37Z</time>
      </trkpt>
      <trkpt lat="45.75256" lon="6.06196">
        <ele>602.403076</ele>
        <time>2011-07-03T09:41:39Z</time>
      </trkpt>
      <trkpt lat="45.75263" lon="6.06175">
        <ele>601.922607</ele>
        <time>2011-07-03T09:41:42Z</time>
      </trkpt>
      <trkpt lat="45.75278" lon="6.06154">
        <ele>602.403076</ele>
        <time>2011-07-03T09:41:46Z</time>
      </trkpt>
      <trkpt lat="45.75342" lon="6.06141">
        <ele>602.403076</ele>
        <time>2011-07-03T09:41:58Z</time>
      </trkpt>
      <trkpt lat="45.75347" lon="6.06119">
        <ele>602.883789</ele>
        <time>2011-07-03T09:42:02Z</time>
      </trkpt>
      <trkpt lat="45.75323" lon="6.06111">
        <ele>602.883789</ele>
        <time>2011-07-03T09:42:13Z</time>
      </trkpt>
      <trkpt lat="45.75304" lon="6.06083">
        <ele>603.845215</ele>
        <time>2011-07-03T09:42:31Z</time>
      </trkpt>
      <trkpt lat="45.7531" lon="6.06016">
        <ele>604.326172</ele>
        <time>2011-07-03T09:43:15Z</time>
      </trkpt>
      <trkpt lat="45.7534" lon="6.05943">
        <ele>603.364502</ele>
        <time>2011-07-03T09:43:53Z</time>
      </trkpt>
      <trkpt lat="45.75563" lon="6.05851">
        <ele>605.287354</ele>
        <time>2011-07-03T09:44:39Z</time>
      </trkpt>
      <trkpt lat="45.75649" lon="6.05767">
        <ele>608.171387</ele>
        <time>2011-07-03T09:45:10Z</time>
      </trkpt>
      <trkpt lat="45.75686" lon="6.0569">
        <ele>611.535889</ele>
        <time>2011-07-03T09:45:36Z</time>
      </trkpt>
      <trkpt lat="45.75726" lon="6.05651">
        <ele>616.822998</ele>
        <time>2011-07-03T09:46:00Z</time>
      </trkpt>
      <trkpt lat="45.75726" lon="6.05639">
        <ele>638.933594</ele>
        <time>2011-07-03T09:46:27Z</time>
      </trkpt>
      <trkpt lat="45.75733" lon="6.05634">
        <ele>652.872559</ele>
        <time>2011-07-03T09:52:04Z</time>
      </trkpt>
      <trkpt lat="45.75752" lon="6.05634">
        <ele>656.237061</ele>
        <time>2011-07-03T09:53:41Z</time>
      </trkpt>
      <trkpt lat="45.75801" lon="6.05606">
        <ele>652.872559</ele>
        <time>2011-07-03T09:54:07Z</time>
      </trkpt>
      <trkpt lat="45.75926" lon="6.05506">
        <ele>650.949707</ele>
        <time>2011-07-03T09:54:46Z</time>
      </trkpt>
      <trkpt lat="45.75992" lon="6.0543">
        <ele>651.43042</ele>
        <time>2011-07-03T09:55:05Z</time>
      </trkpt>
      <trkpt lat="45.76055" lon="6.05282">
        <ele>650.469238</ele>
        <time>2011-07-03T09:55:36Z</time>
      </trkpt>
      <trkpt lat="45.76136" lon="6.0513">
        <ele>647.585205</ele>
        <time>2011-07-03T09:55:43Z</time>
      </trkpt>
      <trkpt lat="45.76205" lon="6.04956">
        <ele>638.933594</ele>
        <time>2011-07-03T09:55:59Z</time>
      </trkpt>
      <trkpt lat="45.76267" lon="6.0478">
        <ele>631.24292</ele>
        <time>2011-07-03T09:56:13Z</time>
      </trkpt>
      <trkpt lat="45.76284" lon="6.04754">
        <ele>628.8396</ele>
        <time>2011-07-03T09:56:17Z</time>
      </trkpt>
      <trkpt lat="45.76331" lon="6.04658">
        <ele>621.629639</ele>
        <time>2011-07-03T09:56:30Z</time>
      </trkpt>
      <trkpt lat="45.76355" lon="6.04598">
        <ele>619.226318</ele>
        <time>2011-07-03T09:56:36Z</time>
      </trkpt>
      <trkpt lat="45.76387" lon="6.04426">
        <ele>611.055176</ele>
        <time>2011-07-03T09:56:50Z</time>
      </trkpt>
      <trkpt lat="45.76404" lon="6.04368">
        <ele>607.209961</ele>
        <time>2011-07-03T09:56:55Z</time>
      </trkpt>
      <trkpt lat="45.76447" lon="6.04205">
        <ele>600.961182</ele>
        <time>2011-07-03T09:57:12Z</time>
      </trkpt>
      <trkpt lat="45.76454" lon="6.04186">
        <ele>600</ele>
        <time>2011-07-03T09:57:14Z</time>
      </trkpt>
      <trkpt lat="45.76441" lon="6.0416">
        <ele>603.364502</ele>
        <time>2011-07-03T09:57:19Z</time>
      </trkpt>
      <trkpt lat="45.76424" lon="6.04132">
        <ele>604.326172</ele>
        <time>2011-07-03T09:57:27Z</time>
      </trkpt>
      <trkpt lat="45.76428" lon="6.04094">
        <ele>600.961182</ele>
        <time>2011-07-03T09:57:33Z</time>
      </trkpt>
      <trkpt lat="45.76419" lon="6.04072">
        <ele>600.961182</ele>
        <time>2011-07-03T09:57:39Z</time>
      </trkpt>
      <trkpt lat="45.76409" lon="6.04068">
        <ele>601.441895</ele>
        <time>2011-07-03T09:57:44Z</time>
      </trkpt>
      <trkpt lat="45.76398" lon="6.04061">
        <ele>601.441895</ele>
        <time>2011-07-03T09:57:50Z</time>
      </trkpt>
      <trkpt lat="45.76394" lon="6.04053">
        <ele>600.961182</ele>
        <time>2011-07-03T09:57:55Z</time>
      </trkpt>
      <trkpt lat="45.76364" lon="6.04016">
        <ele>604.326172</ele>
        <time>2011-07-03T09:58:24Z</time>
      </trkpt>
      <trkpt lat="45.76351" lon="6.03997">
        <ele>609.132568</ele>
        <time>2011-07-03T09:58:40Z</time>
      </trkpt>
      <trkpt lat="45.76349" lon="6.03984">
        <ele>610.09375</ele>
        <time>2011-07-03T09:58:47Z</time>
      </trkpt>
      <trkpt lat="45.7634" lon="6.0395">
        <ele>617.78418</ele>
        <time>2011-07-03T09:59:07Z</time>
      </trkpt>
      <trkpt lat="45.76323" lon="6.03946">
        <ele>621.629639</ele>
        <time>2011-07-03T09:59:21Z</time>
      </trkpt>
      <trkpt lat="45.76289" lon="6.03954">
        <ele>625.474854</ele>
        <time>2011-07-03T09:59:44Z</time>
      </trkpt>
      <trkpt lat="45.76258" lon="6.03954">
        <ele>628.8396</ele>
        <time>2011-07-03T10:00:05Z</time>
      </trkpt>
      <trkpt lat="45.76228" lon="6.03952">
        <ele>632.684814</ele>
        <time>2011-07-03T10:00:24Z</time>
      </trkpt>
      <trkpt lat="45.7619" lon="6.0398">
        <ele>634.607422</ele>
        <time>2011-07-03T10:00:44Z</time>
      </trkpt>
      <trkpt lat="45.76149" lon="6.0401">
        <ele>638.452881</ele>
        <time>2011-07-03T10:01:06Z</time>
      </trkpt>
      <trkpt lat="45.76119" lon="6.04014">
        <ele>642.778809</ele>
        <time>2011-07-03T10:01:24Z</time>
      </trkpt>
      <trkpt lat="45.76083" lon="6.04018">
        <ele>647.585205</ele>
        <time>2011-07-03T10:01:46Z</time>
      </trkpt>
      <trkpt lat="45.76057" lon="6.03991">
        <ele>651.43042</ele>
        <time>2011-07-03T10:02:05Z</time>
      </trkpt>
      <trkpt lat="45.76033" lon="6.03961">
        <ele>655.275879</ele>
        <time>2011-07-03T10:02:23Z</time>
      </trkpt>
      <trkpt lat="45.76001" lon="6.03926">
        <ele>658.159912</ele>
        <time>2011-07-03T10:02:42Z</time>
      </trkpt>
      <trkpt lat="45.75965" lon="6.03879">
        <ele>659.601807</ele>
        <time>2011-07-03T10:03:03Z</time>
      </trkpt>
      <trkpt lat="45.75969" lon="6.03851">
        <ele>658.640381</ele>
        <time>2011-07-03T10:03:09Z</time>
      </trkpt>
      <trkpt lat="45.75995" lon="6.03832">
        <ele>656.237061</ele>
        <time>2011-07-03T10:03:15Z</time>
      </trkpt>
      <trkpt lat="45.76001" lon="6.03778">
        <ele>653.833984</ele>
        <time>2011-07-03T10:03:21Z</time>
      </trkpt>
      <trkpt lat="45.75986" lon="6.03692">
        <ele>652.872559</ele>
        <time>2011-07-03T10:03:31Z</time>
      </trkpt>
      <trkpt lat="45.75962" lon="6.03637">
        <ele>653.353271</ele>
        <time>2011-07-03T10:03:45Z</time>
      </trkpt>
      <trkpt lat="45.7593" lon="6.03574">
        <ele>656.237061</ele>
        <time>2011-07-03T10:04:00Z</time>
      </trkpt>
      <trkpt lat="45.75926" lon="6.03561">
        <ele>657.198486</ele>
        <time>2011-07-03T10:04:04Z</time>
      </trkpt>
      <trkpt lat="45.75915" lon="6.03557">
        <ele>658.159912</ele>
        <time>2011-07-03T10:04:08Z</time>
      </trkpt>
      <trkpt lat="45.75864" lon="6.03576">
        <ele>661.524414</ele>
        <time>2011-07-03T10:04:30Z</time>
      </trkpt>
      <trkpt lat="45.75814" lon="6.03622">
        <ele>666.330811</ele>
        <time>2011-07-03T10:04:55Z</time>
      </trkpt>
      <trkpt lat="45.75786" lon="6.03637">
        <ele>669.695801</ele>
        <time>2011-07-03T10:05:11Z</time>
      </trkpt>
      <trkpt lat="45.75761" lon="6.03656">
        <ele>671.618164</ele>
        <time>2011-07-03T10:05:26Z</time>
      </trkpt>
      <trkpt lat="45.75748" lon="6.03654">
        <ele>672.098877</ele>
        <time>2011-07-03T10:05:32Z</time>
      </trkpt>
      <trkpt lat="45.75713" lon="6.03652">
        <ele>674.502197</ele>
        <time>2011-07-03T10:05:50Z</time>
      </trkpt>
      <trkpt lat="45.75673" lon="6.03615">
        <ele>674.502197</ele>
        <time>2011-07-03T10:06:12Z</time>
      </trkpt>
      <trkpt lat="45.75643" lon="6.03609">
        <ele>678.347412</ele>
        <time>2011-07-03T10:06:29Z</time>
      </trkpt>
      <trkpt lat="45.75602" lon="6.03598">
        <ele>683.634521</ele>
        <time>2011-07-03T10:06:53Z</time>
      </trkpt>
      <trkpt lat="45.7558" lon="6.03579">
        <ele>686.999268</ele>
        <time>2011-07-03T10:07:09Z</time>
      </trkpt>
      <trkpt lat="45.75561" lon="6.03529">
        <ele>690.844482</ele>
        <time>2011-07-03T10:07:31Z</time>
      </trkpt>
      <trkpt lat="45.7555" lon="6.03484">
        <ele>692.286621</ele>
        <time>2011-07-03T10:07:50Z</time>
      </trkpt>
      <trkpt lat="45.75542" lon="6.03448">
        <ele>689.402588</ele>
        <time>2011-07-03T10:07:57Z</time>
      </trkpt>
      <trkpt lat="45.7554" lon="6.03426">
        <ele>687.960693</ele>
        <time>2011-07-03T10:08:00Z</time>
      </trkpt>
      <trkpt lat="45.75533" lon="6.03383">
        <ele>687.47998</ele>
        <time>2011-07-03T10:08:07Z</time>
      </trkpt>
      <trkpt lat="45.75533" lon="6.03381">
        <ele>687.47998</ele>
        <time>2011-07-03T10:08:08Z</time>
      </trkpt>
      <trkpt lat="45.75533" lon="6.0337">
        <ele>686.999268</ele>
        <time>2011-07-03T10:08:11Z</time>
      </trkpt>
      <trkpt lat="45.75529" lon="6.03362">
        <ele>688.922119</ele>
        <time>2011-07-03T10:08:28Z</time>
      </trkpt>
      <trkpt lat="45.7552" lon="6.0333">
        <ele>687.47998</ele>
        <time>2011-07-03T10:09:07Z</time>
      </trkpt>
      <trkpt lat="45.75505" lon="6.03293">
        <ele>689.402588</ele>
        <time>2011-07-03T10:09:18Z</time>
      </trkpt>
      <trkpt lat="45.75419" lon="6.03267">
        <ele>694.209229</ele>
        <time>2011-07-03T10:09:42Z</time>
      </trkpt>
      <trkpt lat="45.75392" lon="6.03274">
        <ele>695.17041</ele>
        <time>2011-07-03T10:09:57Z</time>
      </trkpt>
      <trkpt lat="45.75387" lon="6.03276">
        <ele>695.651123</ele>
        <time>2011-07-03T10:09:59Z</time>
      </trkpt>
      <trkpt lat="45.75379" lon="6.03278">
        <ele>696.131836</ele>
        <time>2011-07-03T10:10:10Z</time>
      </trkpt>
      <trkpt lat="45.75379" lon="6.03274">
        <ele>696.612549</ele>
        <time>2011-07-03T10:10:18Z</time>
      </trkpt>
      <trkpt lat="45.75377" lon="6.03274">
        <ele>696.612549</ele>
        <time>2011-07-03T10:10:19Z</time>
      </trkpt>
      <trkpt lat="45.75336" lon="6.0327">
        <ele>699.015625</ele>
        <time>2011-07-03T10:10:36Z</time>
      </trkpt>
      <trkpt lat="45.75306" lon="6.0328">
        <ele>700.938477</ele>
        <time>2011-07-03T10:10:54Z</time>
      </trkpt>
      <trkpt lat="45.75282" lon="6.03287">
        <ele>701.899902</ele>
        <time>2011-07-03T10:11:12Z</time>
      </trkpt>
      <trkpt lat="45.75254" lon="6.03287">
        <ele>707.187012</ele>
        <time>2011-07-03T10:11:31Z</time>
      </trkpt>
      <trkpt lat="45.75233" lon="6.03283">
        <ele>711.993652</ele>
        <time>2011-07-03T10:11:47Z</time>
      </trkpt>
      <trkpt lat="45.75211" lon="6.03285">
        <ele>715.358154</ele>
        <time>2011-07-03T10:12:13Z</time>
      </trkpt>
      <trkpt lat="45.75207" lon="6.0328">
        <ele>717.281006</ele>
        <time>2011-07-03T10:12:38Z</time>
      </trkpt>
      <trkpt lat="45.75218" lon="6.03244">
        <ele>716.31958</ele>
        <time>2011-07-03T10:12:46Z</time>
      </trkpt>
      <trkpt lat="45.7522" lon="6.0322">
        <ele>716.31958</ele>
        <time>2011-07-03T10:12:55Z</time>
      </trkpt>
      <trkpt lat="45.75216" lon="6.03203">
        <ele>711.032227</ele>
        <time>2011-07-03T10:13:41Z</time>
      </trkpt>
      <trkpt lat="45.75226" lon="6.03188">
        <ele>711.032227</ele>
        <time>2011-07-03T10:13:46Z</time>
      </trkpt>
      <trkpt lat="45.75252" lon="6.03143">
        <ele>710.070801</ele>
        <time>2011-07-03T10:13:53Z</time>
      </trkpt>
      <trkpt lat="45.75327" lon="6.02986">
        <ele>704.303223</ele>
        <time>2011-07-03T10:14:09Z</time>
      </trkpt>
      <trkpt lat="45.7537" lon="6.02924">
        <ele>699.977051</ele>
        <time>2011-07-03T10:14:16Z</time>
      </trkpt>
      <trkpt lat="45.75362" lon="6.02911">
        <ele>698.534912</ele>
        <time>2011-07-03T10:14:21Z</time>
      </trkpt>
      <trkpt lat="45.75334" lon="6.02903">
        <ele>695.651123</ele>
        <time>2011-07-03T10:14:29Z</time>
      </trkpt>
      <trkpt lat="45.75338" lon="6.02873">
        <ele>692.767334</ele>
        <time>2011-07-03T10:14:35Z</time>
      </trkpt>
      <trkpt lat="45.7534" lon="6.0286">
        <ele>692.286621</ele>
        <time>2011-07-03T10:14:37Z</time>
      </trkpt>
      <trkpt lat="45.75321" lon="6.02785">
        <ele>695.17041</ele>
        <time>2011-07-03T10:14:53Z</time>
      </trkpt>
      <trkpt lat="45.7528" lon="6.0274">
        <ele>695.17041</ele>
        <time>2011-07-03T10:15:13Z</time>
      </trkpt>
      <trkpt lat="45.75252" lon="6.02686">
        <ele>694.689697</ele>
        <time>2011-07-03T10:15:31Z</time>
      </trkpt>
      <trkpt lat="45.75233" lon="6.02645">
        <ele>696.131836</ele>
        <time>2011-07-03T10:15:46Z</time>
      </trkpt>
      <trkpt lat="45.75198" lon="6.02634">
        <ele>699.977051</ele>
        <time>2011-07-03T10:16:09Z</time>
      </trkpt>
      <trkpt lat="45.75164" lon="6.0263">
        <ele>704.303223</ele>
        <time>2011-07-03T10:16:30Z</time>
      </trkpt>
      <trkpt lat="45.75134" lon="6.02615">
        <ele>704.303223</ele>
        <time>2011-07-03T10:16:48Z</time>
      </trkpt>
      <trkpt lat="45.75106" lon="6.02594">
        <ele>709.109619</ele>
        <time>2011-07-03T10:17:05Z</time>
      </trkpt>
      <trkpt lat="45.75072" lon="6.02553">
        <ele>711.993652</ele>
        <time>2011-07-03T10:17:23Z</time>
      </trkpt>
      <trkpt lat="45.7507" lon="6.02549">
        <ele>711.512939</ele>
        <time>2011-07-03T10:17:24Z</time>
      </trkpt>
      <trkpt lat="45.75029" lon="6.02493">
        <ele>709.109619</ele>
        <time>2011-07-03T10:17:35Z</time>
      </trkpt>
      <trkpt lat="45.7493" lon="6.02441">
        <ele>709.109619</ele>
        <time>2011-07-03T10:18:00Z</time>
      </trkpt>
      <trkpt lat="45.74917" lon="6.02437">
        <ele>709.109619</ele>
        <time>2011-07-03T10:18:03Z</time>
      </trkpt>
      <trkpt lat="45.74915" lon="6.02437">
        <ele>708.148438</ele>
        <time>2011-07-03T10:18:05Z</time>
      </trkpt>
      <trkpt lat="45.74922" lon="6.02435">
        <ele>707.667725</ele>
        <time>2011-07-03T10:18:08Z</time>
      </trkpt>
      <trkpt lat="45.74943" lon="6.02394">
        <ele>707.187012</ele>
        <time>2011-07-03T10:18:23Z</time>
      </trkpt>
      <trkpt lat="45.74943" lon="6.0239">
        <ele>707.187012</ele>
        <time>2011-07-03T10:18:25Z</time>
      </trkpt>
      <trkpt lat="45.74904" lon="6.02343">
        <ele>706.706299</ele>
        <time>2011-07-03T10:18:41Z</time>
      </trkpt>
      <trkpt lat="45.74834" lon="6.02283">
        <ele>705.745117</ele>
        <time>2011-07-03T10:19:01Z</time>
      </trkpt>
      <trkpt lat="45.74817" lon="6.01982">
        <ele>705.745117</ele>
        <time>2011-07-03T10:19:30Z</time>
      </trkpt>
      <trkpt lat="45.74819" lon="6.01969">
        <ele>705.745117</ele>
        <time>2011-07-03T10:19:33Z</time>
      </trkpt>
      <trkpt lat="45.74814" lon="6.01963">
        <ele>705.745117</ele>
        <time>2011-07-03T10:19:35Z</time>
      </trkpt>
      <trkpt lat="45.7469" lon="6.01862">
        <ele>695.17041</ele>
        <time>2011-07-03T10:19:52Z</time>
      </trkpt>
      <trkpt lat="45.74645" lon="6.018">
        <ele>689.883301</ele>
        <time>2011-07-03T10:20:01Z</time>
      </trkpt>
      <trkpt lat="45.74619" lon="6.01787">
        <ele>688.922119</ele>
        <time>2011-07-03T10:20:08Z</time>
      </trkpt>
      <trkpt lat="45.74561" lon="6.018">
        <ele>677.866699</ele>
        <time>2011-07-03T10:20:21Z</time>
      </trkpt>
      <trkpt lat="45.74497" lon="6.01795">
        <ele>677.38623</ele>
        <time>2011-07-03T10:20:34Z</time>
      </trkpt>
      <trkpt lat="45.74467" lon="6.01789">
        <ele>678.828125</ele>
        <time>2011-07-03T10:20:41Z</time>
      </trkpt>
      <trkpt lat="45.74458" lon="6.01789">
        <ele>678.347412</ele>
        <time>2011-07-03T10:20:43Z</time>
      </trkpt>
      <trkpt lat="45.74385" lon="6.01795">
        <ele>677.38623</ele>
        <time>2011-07-03T10:20:57Z</time>
      </trkpt>
      <trkpt lat="45.74368" lon="6.01791">
        <ele>676.424805</ele>
        <time>2011-07-03T10:21:01Z</time>
      </trkpt>
      <trkpt lat="45.74323" lon="6.01772">
        <ele>678.828125</ele>
        <time>2011-07-03T10:21:15Z</time>
      </trkpt>
      <trkpt lat="45.74265" lon="6.01778">
        <ele>681.231445</ele>
        <time>2011-07-03T10:21:35Z</time>
      </trkpt>
      <trkpt lat="45.74205" lon="6.01753">
        <ele>683.153809</ele>
        <time>2011-07-03T10:21:54Z</time>
      </trkpt>
      <trkpt lat="45.74136" lon="6.01731">
        <ele>685.076904</ele>
        <time>2011-07-03T10:22:15Z</time>
      </trkpt>
      <trkpt lat="45.74117" lon="6.01731">
        <ele>686.518799</ele>
        <time>2011-07-03T10:22:23Z</time>
      </trkpt>
      <trkpt lat="45.74113" lon="6.01733">
        <ele>686.999268</ele>
        <time>2011-07-03T10:22:25Z</time>
      </trkpt>
      <trkpt lat="45.74119" lon="6.01772">
        <ele>687.960693</ele>
        <time>2011-07-03T10:22:42Z</time>
      </trkpt>
      <trkpt lat="45.7413" lon="6.01804">
        <ele>693.728516</ele>
        <time>2011-07-03T10:23:02Z</time>
      </trkpt>
      <trkpt lat="45.74138" lon="6.01817">
        <ele>699.496338</ele>
        <time>2011-07-03T10:23:18Z</time>
      </trkpt>
      <trkpt lat="45.74156" lon="6.01841">
        <ele>708.148438</ele>
        <time>2011-07-03T10:23:40Z</time>
      </trkpt>
      <trkpt lat="45.74168" lon="6.01862">
        <ele>713.916016</ele>
        <time>2011-07-03T10:24:00Z</time>
      </trkpt>
      <trkpt lat="45.74177" lon="6.01877">
        <ele>715.358154</ele>
        <time>2011-07-03T10:24:12Z</time>
      </trkpt>
      <trkpt lat="45.74177" lon="6.01879">
        <ele>716.31958</ele>
        <time>2011-07-03T10:24:15Z</time>
      </trkpt>
      <trkpt lat="45.74188" lon="6.01901">
        <ele>720.164795</ele>
        <time>2011-07-03T10:24:32Z</time>
      </trkpt>
      <trkpt lat="45.74196" lon="6.0192">
        <ele>721.126221</ele>
        <time>2011-07-03T10:24:52Z</time>
      </trkpt>
      <trkpt lat="45.74192" lon="6.0192">
        <ele>718.242188</ele>
        <time>2011-07-03T10:25:29Z</time>
      </trkpt>
      <trkpt lat="45.74188" lon="6.0192">
        <ele>713.916016</ele>
        <time>2011-07-03T10:25:46Z</time>
      </trkpt>
      <trkpt lat="45.74188" lon="6.01931">
        <ele>715.358154</ele>
        <time>2011-07-03T10:25:52Z</time>
      </trkpt>
      <trkpt lat="45.74192" lon="6.01974">
        <ele>720.164795</ele>
        <time>2011-07-03T10:26:16Z</time>
      </trkpt>
      <trkpt lat="45.74192" lon="6.01984">
        <ele>723.529541</ele>
        <time>2011-07-03T10:26:22Z</time>
      </trkpt>
      <trkpt lat="45.74179" lon="6.01991">
        <ele>724.490723</ele>
        <time>2011-07-03T10:26:32Z</time>
      </trkpt>
      <trkpt lat="45.74149" lon="6.01991">
        <ele>725.932617</ele>
        <time>2011-07-03T10:26:57Z</time>
      </trkpt>
      <trkpt lat="45.74132" lon="6.01997">
        <ele>729.297119</ele>
        <time>2011-07-03T10:27:13Z</time>
      </trkpt>
      <trkpt lat="45.74106" lon="6.02012">
        <ele>732.662109</ele>
        <time>2011-07-03T10:27:30Z</time>
      </trkpt>
      <trkpt lat="45.74078" lon="6.02055">
        <ele>735.545898</ele>
        <time>2011-07-03T10:27:54Z</time>
      </trkpt>
      <trkpt lat="45.74053" lon="6.02087">
        <ele>735.545898</ele>
        <time>2011-07-03T10:28:14Z</time>
      </trkpt>
      <trkpt lat="45.7405" lon="6.02092">
        <ele>735.545898</ele>
        <time>2011-07-03T10:28:17Z</time>
      </trkpt>
      <trkpt lat="45.74042" lon="6.02126">
        <ele>738.429932</ele>
        <time>2011-07-03T10:28:34Z</time>
      </trkpt>
      <trkpt lat="45.74038" lon="6.02145">
        <ele>744.678223</ele>
        <time>2011-07-03T10:28:52Z</time>
      </trkpt>
      <trkpt lat="45.74029" lon="6.02162">
        <ele>749.485107</ele>
        <time>2011-07-03T10:29:13Z</time>
      </trkpt>
      <trkpt lat="45.7402" lon="6.02173">
        <ele>752.368896</ele>
        <time>2011-07-03T10:29:32Z</time>
      </trkpt>
      <trkpt lat="45.74014" lon="6.02171">
        <ele>752.368896</ele>
        <time>2011-07-03T10:29:53Z</time>
      </trkpt>
      <trkpt lat="45.74014" lon="6.02171">
        <ele>756.694824</ele>
        <time>2011-07-03T10:30:50Z</time>
      </trkpt>
      <trkpt lat="45.74014" lon="6.02171">
        <ele>756.214111</ele>
        <time>2011-07-03T10:30:54Z</time>
      </trkpt>
      <trkpt lat="45.74005" lon="6.02165">
        <ele>756.214111</ele>
        <time>2011-07-03T10:31:02Z</time>
      </trkpt>
      <trkpt lat="45.73982" lon="6.02141">
        <ele>755.25293</ele>
        <time>2011-07-03T10:31:13Z</time>
      </trkpt>
      <trkpt lat="45.73967" lon="6.02141">
        <ele>755.733643</ele>
        <time>2011-07-03T10:31:23Z</time>
      </trkpt>
      <trkpt lat="45.7395" lon="6.0215">
        <ele>758.617432</ele>
        <time>2011-07-03T10:31:33Z</time>
      </trkpt>
      <trkpt lat="45.73937" lon="6.02143">
        <ele>759.098145</ele>
        <time>2011-07-03T10:31:40Z</time>
      </trkpt>
      <trkpt lat="45.73909" lon="6.02137">
        <ele>761.982178</ele>
        <time>2011-07-03T10:31:54Z</time>
      </trkpt>
      <trkpt lat="45.73883" lon="6.02102">
        <ele>761.020752</ele>
        <time>2011-07-03T10:32:09Z</time>
      </trkpt>
      <trkpt lat="45.73847" lon="6.02053">
        <ele>763.424072</ele>
        <time>2011-07-03T10:32:32Z</time>
      </trkpt>
      <trkpt lat="45.73834" lon="6.02029">
        <ele>764.866211</ele>
        <time>2011-07-03T10:32:44Z</time>
      </trkpt>
      <trkpt lat="45.73825" lon="6.02006">
        <ele>763.424072</ele>
        <time>2011-07-03T10:32:47Z</time>
      </trkpt>
      <trkpt lat="45.73774" lon="6.01853">
        <ele>761.982178</ele>
        <time>2011-07-03T10:32:55Z</time>
      </trkpt>
      <trkpt lat="45.73759" lon="6.01804">
        <ele>760.540039</ele>
        <time>2011-07-03T10:33:01Z</time>
      </trkpt>
      <trkpt lat="45.73769" lon="6.01738">
        <ele>757.65625</ele>
        <time>2011-07-03T10:33:07Z</time>
      </trkpt>
      <trkpt lat="45.73767" lon="6.01714">
        <ele>757.65625</ele>
        <time>2011-07-03T10:33:09Z</time>
      </trkpt>
      <trkpt lat="45.73744" lon="6.01673">
        <ele>757.65625</ele>
        <time>2011-07-03T10:33:13Z</time>
      </trkpt>
      <trkpt lat="45.73677" lon="6.0163">
        <ele>752.368896</ele>
        <time>2011-07-03T10:33:24Z</time>
      </trkpt>
      <trkpt lat="45.73645" lon="6.01607">
        <ele>750.927002</ele>
        <time>2011-07-03T10:33:32Z</time>
      </trkpt>
      <trkpt lat="45.73651" lon="6.01607">
        <ele>747.081543</ele>
        <time>2011-07-03T10:33:36Z</time>
      </trkpt>
      <trkpt lat="45.73681" lon="6.0157">
        <ele>737.468506</ele>
        <time>2011-07-03T10:33:49Z</time>
      </trkpt>
      <trkpt lat="45.73684" lon="6.01566">
        <ele>701.899902</ele>
        <time>2011-07-03T10:34:09Z</time>
      </trkpt>
      <trkpt lat="45.73696" lon="6.01536">
        <ele>702.380371</ele>
        <time>2011-07-03T10:34:21Z</time>
      </trkpt>
      <trkpt lat="45.73705" lon="6.01523">
        <ele>702.861084</ele>
        <time>2011-07-03T10:34:29Z</time>
      </trkpt>
      <trkpt lat="45.73711" lon="6.01506">
        <ele>700.458008</ele>
        <time>2011-07-03T10:34:34Z</time>
      </trkpt>
      <trkpt lat="45.73729" lon="6.01435">
        <ele>695.17041</ele>
        <time>2011-07-03T10:34:43Z</time>
      </trkpt>
      <trkpt lat="45.73754" lon="6.0142">
        <ele>692.767334</ele>
        <time>2011-07-03T10:34:49Z</time>
      </trkpt>
      <trkpt lat="45.73759" lon="6.0142">
        <ele>690.844482</ele>
        <time>2011-07-03T10:34:56Z</time>
      </trkpt>
      <trkpt lat="45.73765" lon="6.0142">
        <ele>688.441406</ele>
        <time>2011-07-03T10:35:08Z</time>
      </trkpt>
      <trkpt lat="45.73763" lon="6.01422">
        <ele>687.960693</ele>
        <time>2011-07-03T10:35:19Z</time>
      </trkpt>
      <trkpt lat="45.73765" lon="6.01418">
        <ele>686.518799</ele>
        <time>2011-07-03T10:35:33Z</time>
      </trkpt>
      <trkpt lat="45.73769" lon="6.01418">
        <ele>685.076904</ele>
        <time>2011-07-03T10:36:22Z</time>
      </trkpt>
      <trkpt lat="45.73772" lon="6.01409">
        <ele>690.844482</ele>
        <time>2011-07-03T10:39:44Z</time>
      </trkpt>
      <trkpt lat="45.73767" lon="6.01405">
        <ele>690.364014</ele>
        <time>2011-07-03T10:40:11Z</time>
      </trkpt>
      <trkpt lat="45.73763" lon="6.01403">
        <ele>690.364014</ele>
        <time>2011-07-03T10:40:15Z</time>
      </trkpt>
      <trkpt lat="45.73752" lon="6.01379">
        <ele>687.47998</ele>
        <time>2011-07-03T10:40:29Z</time>
      </trkpt>
      <trkpt lat="45.73722" lon="6.01347">
        <ele>685.076904</ele>
        <time>2011-07-03T10:40:39Z</time>
      </trkpt>
      <trkpt lat="45.73716" lon="6.01338">
        <ele>684.596191</ele>
        <time>2011-07-03T10:40:41Z</time>
      </trkpt>
      <trkpt lat="45.73662" lon="6.01285">
        <ele>684.115479</ele>
        <time>2011-07-03T10:40:55Z</time>
      </trkpt>
      <trkpt lat="45.73636" lon="6.0125">
        <ele>683.153809</ele>
        <time>2011-07-03T10:41:02Z</time>
      </trkpt>
      <trkpt lat="45.73632" lon="6.0124">
        <ele>683.153809</ele>
        <time>2011-07-03T10:41:04Z</time>
      </trkpt>
      <trkpt lat="45.73576" lon="6.01162">
        <ele>682.192627</ele>
        <time>2011-07-03T10:41:23Z</time>
      </trkpt>
      <trkpt lat="45.73546" lon="6.01143">
        <ele>681.711914</ele>
        <time>2011-07-03T10:41:32Z</time>
      </trkpt>
      <trkpt lat="45.73544" lon="6.01175">
        <ele>684.115479</ele>
        <time>2011-07-03T10:41:42Z</time>
      </trkpt>
      <trkpt lat="45.73548" lon="6.01235">
        <ele>688.441406</ele>
        <time>2011-07-03T10:42:02Z</time>
      </trkpt>
      <trkpt lat="45.73551" lon="6.01281">
        <ele>692.286621</ele>
        <time>2011-07-03T10:42:20Z</time>
      </trkpt>
      <trkpt lat="45.73546" lon="6.01326">
        <ele>695.651123</ele>
        <time>2011-07-03T10:42:39Z</time>
      </trkpt>
      <trkpt lat="45.73516" lon="6.01326">
        <ele>698.054443</ele>
        <time>2011-07-03T10:42:55Z</time>
      </trkpt>
      <trkpt lat="45.73484" lon="6.01323">
        <ele>699.977051</ele>
        <time>2011-07-03T10:43:12Z</time>
      </trkpt>
      <trkpt lat="45.73448" lon="6.01321">
        <ele>702.861084</ele>
        <time>2011-07-03T10:43:31Z</time>
      </trkpt>
      <trkpt lat="45.73407" lon="6.01317">
        <ele>705.264404</ele>
        <time>2011-07-03T10:43:51Z</time>
      </trkpt>
      <trkpt lat="45.73364" lon="6.01319">
        <ele>708.148438</ele>
        <time>2011-07-03T10:44:12Z</time>
      </trkpt>
      <trkpt lat="45.7331" lon="6.01336">
        <ele>712.954834</ele>
        <time>2011-07-03T10:44:38Z</time>
      </trkpt>
      <trkpt lat="45.73272" lon="6.01351">
        <ele>714.877441</ele>
        <time>2011-07-03T10:44:57Z</time>
      </trkpt>
      <trkpt lat="45.73233" lon="6.01356">
        <ele>718.242188</ele>
        <time>2011-07-03T10:45:16Z</time>
      </trkpt>
      <trkpt lat="45.73194" lon="6.01321">
        <ele>719.203613</ele>
        <time>2011-07-03T10:45:34Z</time>
      </trkpt>
      <trkpt lat="45.73192" lon="6.01319">
        <ele>719.684326</ele>
        <time>2011-07-03T10:45:35Z</time>
      </trkpt>
      <trkpt lat="45.73145" lon="6.01332">
        <ele>722.087402</ele>
        <time>2011-07-03T10:45:54Z</time>
      </trkpt>
      <trkpt lat="45.73119" lon="6.01349">
        <ele>722.087402</ele>
        <time>2011-07-03T10:46:05Z</time>
      </trkpt>
      <trkpt lat="45.73081" lon="6.01326">
        <ele>724.490723</ele>
        <time>2011-07-03T10:46:21Z</time>
      </trkpt>
      <trkpt lat="45.7304" lon="6.01343">
        <ele>725.451904</ele>
        <time>2011-07-03T10:46:38Z</time>
      </trkpt>
      <trkpt lat="45.72984" lon="6.01347">
        <ele>727.374756</ele>
        <time>2011-07-03T10:46:57Z</time>
      </trkpt>
      <trkpt lat="45.7293" lon="6.01326">
        <ele>732.181396</ele>
        <time>2011-07-03T10:47:16Z</time>
      </trkpt>
      <trkpt lat="45.72892" lon="6.01323">
        <ele>734.104004</ele>
        <time>2011-07-03T10:47:30Z</time>
      </trkpt>
      <trkpt lat="45.72849" lon="6.01332">
        <ele>735.06543</ele>
        <time>2011-07-03T10:47:48Z</time>
      </trkpt>
      <trkpt lat="45.72819" lon="6.01321">
        <ele>736.987793</ele>
        <time>2011-07-03T10:48:03Z</time>
      </trkpt>
      <trkpt lat="45.72776" lon="6.01334">
        <ele>737.949219</ele>
        <time>2011-07-03T10:48:18Z</time>
      </trkpt>
      <trkpt lat="45.72748" lon="6.01319">
        <ele>740.833008</ele>
        <time>2011-07-03T10:48:35Z</time>
      </trkpt>
      <trkpt lat="45.72746" lon="6.01317">
        <ele>740.833008</ele>
        <time>2011-07-03T10:48:37Z</time>
      </trkpt>
      <trkpt lat="45.72746" lon="6.01315">
        <ele>740.352539</ele>
        <time>2011-07-03T10:48:39Z</time>
      </trkpt>
      <trkpt lat="45.72752" lon="6.01298">
        <ele>739.871826</ele>
        <time>2011-07-03T10:48:42Z</time>
      </trkpt>
      <trkpt lat="45.72761" lon="6.01283">
        <ele>739.391113</ele>
        <time>2011-07-03T10:48:44Z</time>
      </trkpt>
      <trkpt lat="45.72767" lon="6.01268">
        <ele>738.910645</ele>
        <time>2011-07-03T10:48:46Z</time>
      </trkpt>
      <trkpt lat="45.72776" lon="6.01233">
        <ele>738.910645</ele>
        <time>2011-07-03T10:48:50Z</time>
      </trkpt>
      <trkpt lat="45.72784" lon="6.01212">
        <ele>738.429932</ele>
        <time>2011-07-03T10:48:53Z</time>
      </trkpt>
      <trkpt lat="45.72834" lon="6.01059">
        <ele>735.06543</ele>
        <time>2011-07-03T10:49:09Z</time>
      </trkpt>
      <trkpt lat="45.72881" lon="6.00939">
        <ele>723.048828</ele>
        <time>2011-07-03T10:49:22Z</time>
      </trkpt>
      <trkpt lat="45.72907" lon="6.0089">
        <ele>715.358154</ele>
        <time>2011-07-03T10:49:26Z</time>
      </trkpt>
      <trkpt lat="45.72948" lon="6.0086">
        <ele>705.264404</ele>
        <time>2011-07-03T10:49:32Z</time>
      </trkpt>
      <trkpt lat="45.72965" lon="6.00858">
        <ele>702.380371</ele>
        <time>2011-07-03T10:49:34Z</time>
      </trkpt>
      <trkpt lat="45.72995" lon="6.00815">
        <ele>699.977051</ele>
        <time>2011-07-03T10:49:39Z</time>
      </trkpt>
      <trkpt lat="45.73021" lon="6.00778">
        <ele>691.325195</ele>
        <time>2011-07-03T10:49:46Z</time>
      </trkpt>
      <trkpt lat="45.73027" lon="6.00776">
        <ele>688.441406</ele>
        <time>2011-07-03T10:49:48Z</time>
      </trkpt>
      <trkpt lat="45.73048" lon="6.00755">
        <ele>679.789307</ele>
        <time>2011-07-03T10:49:55Z</time>
      </trkpt>
      <trkpt lat="45.73042" lon="6.00744">
        <ele>676.905518</ele>
        <time>2011-07-03T10:49:57Z</time>
      </trkpt>
      <trkpt lat="45.73027" lon="6.00729">
        <ele>672.57959</ele>
        <time>2011-07-03T10:50:04Z</time>
      </trkpt>
      <trkpt lat="45.73025" lon="6.00723">
        <ele>667.772705</ele>
        <time>2011-07-03T10:50:15Z</time>
      </trkpt>
      <trkpt lat="45.73029" lon="6.00708">
        <ele>663.92749</ele>
        <time>2011-07-03T10:50:20Z</time>
      </trkpt>
      <trkpt lat="45.73046" lon="6.00609">
        <ele>651.911133</ele>
        <time>2011-07-03T10:50:28Z</time>
      </trkpt>
      <trkpt lat="45.73048" lon="6.0057">
        <ele>644.701172</ele>
        <time>2011-07-03T10:50:36Z</time>
      </trkpt>
      <trkpt lat="45.73057" lon="6.00532">
        <ele>640.855957</ele>
        <time>2011-07-03T10:50:43Z</time>
      </trkpt>
      <trkpt lat="45.73048" lon="6.00527">
        <ele>639.894775</ele>
        <time>2011-07-03T10:50:45Z</time>
      </trkpt>
      <trkpt lat="45.73021" lon="6.00497">
        <ele>634.607422</ele>
        <time>2011-07-03T10:50:53Z</time>
      </trkpt>
      <trkpt lat="45.73003" lon="6.00356">
        <ele>623.55249</ele>
        <time>2011-07-03T10:51:10Z</time>
      </trkpt>
      <trkpt lat="45.73012" lon="6.00298">
        <ele>622.591064</ele>
        <time>2011-07-03T10:51:17Z</time>
      </trkpt>
      <trkpt lat="45.73036" lon="6.0021">
        <ele>613.938965</ele>
        <time>2011-07-03T10:51:31Z</time>
      </trkpt>
      <trkpt lat="45.7304" lon="6.00167">
        <ele>609.132568</ele>
        <time>2011-07-03T10:51:36Z</time>
      </trkpt>
      <trkpt lat="45.73036" lon="6.00133">
        <ele>606.248535</ele>
        <time>2011-07-03T10:51:39Z</time>
      </trkpt>
      <trkpt lat="45.73027" lon="6.00072">
        <ele>601.922607</ele>
        <time>2011-07-03T10:51:44Z</time>
      </trkpt>
      <trkpt lat="45.73016" lon="6.00047">
        <ele>597.59668</ele>
        <time>2011-07-03T10:51:50Z</time>
      </trkpt>
      <trkpt lat="45.73001" lon="6.00047">
        <ele>594.232178</ele>
        <time>2011-07-03T10:51:53Z</time>
      </trkpt>
      <trkpt lat="45.72982" lon="6.00051">
        <ele>591.828857</ele>
        <time>2011-07-03T10:51:56Z</time>
      </trkpt>
      <trkpt lat="45.72967" lon="6.00049">
        <ele>590.867432</ele>
        <time>2011-07-03T10:51:58Z</time>
      </trkpt>
      <trkpt lat="45.72952" lon="5.99987">
        <ele>587.502686</ele>
        <time>2011-07-03T10:52:10Z</time>
      </trkpt>
      <trkpt lat="45.72956" lon="5.99886">
        <ele>585.099609</ele>
        <time>2011-07-03T10:52:29Z</time>
      </trkpt>
      <trkpt lat="45.72978" lon="5.99862">
        <ele>582.696289</ele>
        <time>2011-07-03T10:52:33Z</time>
      </trkpt>
      <trkpt lat="45.73059" lon="5.99796">
        <ele>576.928467</ele>
        <time>2011-07-03T10:52:45Z</time>
      </trkpt>
      <trkpt lat="45.73061" lon="5.99772">
        <ele>576.928467</ele>
        <time>2011-07-03T10:52:49Z</time>
      </trkpt>
      <trkpt lat="45.73055" lon="5.99716">
        <ele>576.447754</ele>
        <time>2011-07-03T10:52:55Z</time>
      </trkpt>
      <trkpt lat="45.73053" lon="5.99684">
        <ele>576.447754</ele>
        <time>2011-07-03T10:53:01Z</time>
      </trkpt>
      <trkpt lat="45.73038" lon="5.99596">
        <ele>574.525146</ele>
        <time>2011-07-03T10:53:10Z</time>
      </trkpt>
      <trkpt lat="45.73029" lon="5.9957">
        <ele>568.75708</ele>
        <time>2011-07-03T10:53:14Z</time>
      </trkpt>
      <trkpt lat="45.73029" lon="5.99557">
        <ele>562.989258</ele>
        <time>2011-07-03T10:53:19Z</time>
      </trkpt>
      <trkpt lat="45.73038" lon="5.99545">
        <ele>561.06665</ele>
        <time>2011-07-03T10:53:22Z</time>
      </trkpt>
      <trkpt lat="45.73051" lon="5.99534">
        <ele>557.221436</ele>
        <time>2011-07-03T10:53:25Z</time>
      </trkpt>
      <trkpt lat="45.73048" lon="5.99517">
        <ele>552.414551</ele>
        <time>2011-07-03T10:53:29Z</time>
      </trkpt>
      <trkpt lat="45.73023" lon="5.99461">
        <ele>540.878906</ele>
        <time>2011-07-03T10:53:37Z</time>
      </trkpt>
      <trkpt lat="45.73029" lon="5.99437">
        <ele>537.514282</ele>
        <time>2011-07-03T10:53:39Z</time>
      </trkpt>
      <trkpt lat="45.73042" lon="5.99366">
        <ele>528.381836</ele>
        <time>2011-07-03T10:53:44Z</time>
      </trkpt>
      <trkpt lat="45.73072" lon="5.99347">
        <ele>522.133179</ele>
        <time>2011-07-03T10:53:49Z</time>
      </trkpt>
      <trkpt lat="45.73081" lon="5.99349">
        <ele>521.652588</ele>
        <time>2011-07-03T10:53:50Z</time>
      </trkpt>
      <trkpt lat="45.73119" lon="5.99309">
        <ele>515.884644</ele>
        <time>2011-07-03T10:53:57Z</time>
      </trkpt>
      <trkpt lat="45.73106" lon="5.99261">
        <ele>510.59729</ele>
        <time>2011-07-03T10:54:02Z</time>
      </trkpt>
      <trkpt lat="45.73098" lon="5.99238">
        <ele>505.790894</ele>
        <time>2011-07-03T10:54:08Z</time>
      </trkpt>
      <trkpt lat="45.73102" lon="5.99236">
        <ele>505.310181</ele>
        <time>2011-07-03T10:54:09Z</time>
      </trkpt>
      <trkpt lat="45.73162" lon="5.9921">
        <ele>500.022949</ele>
        <time>2011-07-03T10:54:23Z</time>
      </trkpt>
      <trkpt lat="45.73203" lon="5.99193">
        <ele>499.061523</ele>
        <time>2011-07-03T10:54:38Z</time>
      </trkpt>
      <trkpt lat="45.73257" lon="5.99169">
        <ele>500.50354</ele>
        <time>2011-07-03T10:54:56Z</time>
      </trkpt>
      <trkpt lat="45.73299" lon="5.99158">
        <ele>504.348877</ele>
        <time>2011-07-03T10:55:14Z</time>
      </trkpt>
      <trkpt lat="45.73345" lon="5.99141">
        <ele>507.232788</ele>
        <time>2011-07-03T10:55:34Z</time>
      </trkpt>
      <trkpt lat="45.7339" lon="5.99092">
        <ele>506.271484</ele>
        <time>2011-07-03T10:55:53Z</time>
      </trkpt>
      <trkpt lat="45.73441" lon="5.99038">
        <ele>508.194092</ele>
        <time>2011-07-03T10:56:12Z</time>
      </trkpt>
      <trkpt lat="45.73469" lon="5.99004">
        <ele>506.752075</ele>
        <time>2011-07-03T10:56:22Z</time>
      </trkpt>
      <trkpt lat="45.73518" lon="5.98952">
        <ele>507.232788</ele>
        <time>2011-07-03T10:56:37Z</time>
      </trkpt>
      <trkpt lat="45.73548" lon="5.98905">
        <ele>510.59729</ele>
        <time>2011-07-03T10:56:53Z</time>
      </trkpt>
      <trkpt lat="45.73587" lon="5.98864">
        <ele>511.558716</ele>
        <time>2011-07-03T10:57:14Z</time>
      </trkpt>
      <trkpt lat="45.73619" lon="5.98828">
        <ele>513.000732</ele>
        <time>2011-07-03T10:57:33Z</time>
      </trkpt>
      <trkpt lat="45.73636" lon="5.98783">
        <ele>509.155396</ele>
        <time>2011-07-03T10:57:40Z</time>
      </trkpt>
      <trkpt lat="45.73694" lon="5.98697">
        <ele>505.310181</ele>
        <time>2011-07-03T10:57:50Z</time>
      </trkpt>
      <trkpt lat="45.73744" lon="5.98673">
        <ele>502.906738</ele>
        <time>2011-07-03T10:57:56Z</time>
      </trkpt>
      <trkpt lat="45.7384" lon="5.9868">
        <ele>501.945557</ele>
        <time>2011-07-03T10:58:07Z</time>
      </trkpt>
      <trkpt lat="45.73896" lon="5.98663">
        <ele>497.619629</ele>
        <time>2011-07-03T10:58:13Z</time>
      </trkpt>
      <trkpt lat="45.73926" lon="5.98635">
        <ele>496.658325</ele>
        <time>2011-07-03T10:58:17Z</time>
      </trkpt>
      <trkpt lat="45.73963" lon="5.98633">
        <ele>496.177734</ele>
        <time>2011-07-03T10:58:23Z</time>
      </trkpt>
      <trkpt lat="45.74121" lon="5.98656">
        <ele>488.00647</ele>
        <time>2011-07-03T10:58:47Z</time>
      </trkpt>
      <trkpt lat="45.74196" lon="5.98669">
        <ele>486.564453</ele>
        <time>2011-07-03T10:58:57Z</time>
      </trkpt>
      <trkpt lat="45.7428" lon="5.98637">
        <ele>486.564453</ele>
        <time>2011-07-03T10:59:09Z</time>
      </trkpt>
      <trkpt lat="45.74306" lon="5.98635">
        <ele>486.08374</ele>
        <time>2011-07-03T10:59:13Z</time>
      </trkpt>
      <trkpt lat="45.74319" lon="5.98641">
        <ele>485.603027</ele>
        <time>2011-07-03T10:59:15Z</time>
      </trkpt>
      <trkpt lat="45.74327" lon="5.98645">
        <ele>485.603027</ele>
        <time>2011-07-03T10:59:17Z</time>
      </trkpt>
      <trkpt lat="45.74349" lon="5.98663">
        <ele>486.08374</ele>
        <time>2011-07-03T10:59:21Z</time>
      </trkpt>
      <trkpt lat="45.74359" lon="5.98693">
        <ele>488.00647</ele>
        <time>2011-07-03T10:59:26Z</time>
      </trkpt>
      <trkpt lat="45.74364" lon="5.98725">
        <ele>490.40979</ele>
        <time>2011-07-03T10:59:31Z</time>
      </trkpt>
      <trkpt lat="45.74387" lon="5.98789">
        <ele>491.851685</ele>
        <time>2011-07-03T10:59:43Z</time>
      </trkpt>
      <trkpt lat="45.74426" lon="5.98847">
        <ele>491.370972</ele>
        <time>2011-07-03T10:59:54Z</time>
      </trkpt>
      <trkpt lat="45.74443" lon="5.98888">
        <ele>491.851685</ele>
        <time>2011-07-03T11:00:00Z</time>
      </trkpt>
      <trkpt lat="45.74445" lon="5.9895">
        <ele>491.851685</ele>
        <time>2011-07-03T11:00:06Z</time>
      </trkpt>
      <trkpt lat="45.74462" lon="5.98982">
        <ele>492.332397</ele>
        <time>2011-07-03T11:00:11Z</time>
      </trkpt>
      <trkpt lat="45.74477" lon="5.98978">
        <ele>492.812988</ele>
        <time>2011-07-03T11:00:14Z</time>
      </trkpt>
      <trkpt lat="45.74503" lon="5.98946">
        <ele>493.774292</ele>
        <time>2011-07-03T11:00:23Z</time>
      </trkpt>
      <trkpt lat="45.74542" lon="5.98918">
        <ele>496.658325</ele>
        <time>2011-07-03T11:00:36Z</time>
      </trkpt>
      <trkpt lat="45.74563" lon="5.98901">
        <ele>496.177734</ele>
        <time>2011-07-03T11:00:42Z</time>
      </trkpt>
      <trkpt lat="45.74568" lon="5.98884">
        <ele>495.696899</ele>
        <time>2011-07-03T11:00:45Z</time>
      </trkpt>
      <trkpt lat="45.74561" lon="5.98858">
        <ele>495.696899</ele>
        <time>2011-07-03T11:00:48Z</time>
      </trkpt>
      <trkpt lat="45.74529" lon="5.98753">
        <ele>495.696899</ele>
        <time>2011-07-03T11:00:58Z</time>
      </trkpt>
      <trkpt lat="45.74574" lon="5.98742">
        <ele>495.216187</ele>
        <time>2011-07-03T11:01:04Z</time>
      </trkpt>
      <trkpt lat="45.74593" lon="5.9874">
        <ele>495.216187</ele>
        <time>2011-07-03T11:01:06Z</time>
      </trkpt>
      <trkpt lat="45.74656" lon="5.98742">
        <ele>493.774292</ele>
        <time>2011-07-03T11:01:14Z</time>
      </trkpt>
      <trkpt lat="45.74726" lon="5.9874">
        <ele>491.851685</ele>
        <time>2011-07-03T11:01:31Z</time>
      </trkpt>
      <trkpt lat="45.74752" lon="5.98701">
        <ele>488.967773</ele>
        <time>2011-07-03T11:01:47Z</time>
      </trkpt>
      <trkpt lat="45.74752" lon="5.98641">
        <ele>488.967773</ele>
        <time>2011-07-03T11:02:04Z</time>
      </trkpt>
      <trkpt lat="45.74754" lon="5.98626">
        <ele>488.487183</ele>
        <time>2011-07-03T11:02:09Z</time>
      </trkpt>
      <trkpt lat="45.74756" lon="5.98643">
        <ele>488.487183</ele>
        <time>2011-07-03T11:02:16Z</time>
      </trkpt>
      <trkpt lat="45.74759" lon="5.98665">
        <ele>487.525635</ele>
        <time>2011-07-03T11:02:22Z</time>
      </trkpt>
      <trkpt lat="45.74769" lon="5.98682">
        <ele>485.603027</ele>
        <time>2011-07-03T11:02:29Z</time>
      </trkpt>
      <trkpt lat="45.74776" lon="5.98684">
        <ele>486.08374</ele>
        <time>2011-07-03T11:02:42Z</time>
      </trkpt>
      <trkpt lat="45.74771" lon="5.9868">
        <ele>487.525635</ele>
        <time>2011-07-03T11:02:54Z</time>
      </trkpt>
      <trkpt lat="45.74769" lon="5.98673">
        <ele>489.448364</ele>
        <time>2011-07-03T11:03:09Z</time>
      </trkpt>
      <trkpt lat="45.74771" lon="5.98661">
        <ele>491.851685</ele>
        <time>2011-07-03T11:03:25Z</time>
      </trkpt>
      <trkpt lat="45.74778" lon="5.98658">
        <ele>491.851685</ele>
        <time>2011-07-03T11:03:46Z</time>
      </trkpt>
      <trkpt lat="45.74776" lon="5.98658">
        <ele>491.370972</ele>
        <time>2011-07-03T11:03:50Z</time>
      </trkpt>
    </trkseg>
  </trk>
</gpx>